Time,TemperatureF,DewpointF,PressureIn,WindDirection,WindDirectionDegrees,WindSpeedMPH,WindSpeedGustMPH,Humidity,HourlyPrecipIn,Conditions,Clouds,dailyrainin,SoftwareType,DateUTC
2013-11-20 00:00:00,42.3,29.4,29.50,West,270,3.4,3.4,60,0.00,,,0.00,WUHU216HW,2013-11-20 07:00:00,
2013-11-20 00:02:00,42.1,30.0,29.50,West,270,3.8,3.8,62,0.00,,,0.00,WUHU216HW,2013-11-20 07:02:00,
2013-11-20 00:03:00,42.1,30.0,29.50,WNW,293,4.0,4.3,62,0.00,,,0.00,WUHU216HW,2013-11-20 07:03:00,
2013-11-20 00:04:00,42.1,30.0,29.50,West,270,4.0,4.3,62,0.00,,,0.00,WUHU216HW,2013-11-20 07:04:00,
2013-11-20 00:05:00,42.1,29.6,29.50,WNW,293,6.9,6.9,61,0.00,,,0.00,WUHU216HW,2013-11-20 07:05:00,
2013-11-20 00:07:00,41.4,27.7,29.50,West,270,2.5,11.2,58,0.00,,,0.00,WUHU216HW,2013-11-20 07:07:00,
2013-11-20 00:08:00,41.2,27.6,29.50,WNW,293,5.6,11.2,58,0.00,,,0.00,WUHU216HW,2013-11-20 07:08:00,
2013-11-20 00:09:00,40.1,28.5,29.50,NW,315,12.1,12.1,63,0.00,,,0.00,WUHU216HW,2013-11-20 07:09:00,
2013-11-20 00:10:00,40.1,28.5,29.50,NNW,338,8.9,12.1,63,0.00,,,0.00,WUHU216HW,2013-11-20 07:10:00,
2013-11-20 00:12:00,39.4,27.4,29.50,NNW,338,10.3,12.1,62,0.00,,,0.00,WUHU216HW,2013-11-20 07:12:00,
2013-11-20 00:13:00,39.2,28.4,29.50,NNW,338,2.5,12.1,65,0.00,,,0.00,WUHU216HW,2013-11-20 07:13:00,
2013-11-20 00:15:00,39.2,27.6,29.50,SW,225,4.3,12.1,63,0.00,,,0.00,WUHU216HW,2013-11-20 07:15:00,
2013-11-20 00:16:00,39.4,27.8,29.50,WSW,248,3.6,12.1,63,0.00,,,0.00,WUHU216HW,2013-11-20 07:16:00,
2013-11-20 00:17:00,39.4,27.8,29.50,SSW,203,3.1,12.1,63,0.00,,,0.00,WUHU216HW,2013-11-20 07:17:00,
2013-11-20 00:18:00,39.4,27.8,29.50,WNW,293,6.5,12.1,63,0.00,,,0.00,WUHU216HW,2013-11-20 07:18:00,
2013-11-20 00:20:00,39.4,27.8,29.50,NNW,338,2.2,11.0,63,0.00,,,0.00,WUHU216HW,2013-11-20 07:20:00,
2013-11-20 00:21:00,39.2,27.6,29.50,WNW,293,3.4,11.0,63,0.00,,,0.00,WUHU216HW,2013-11-20 07:21:00,
2013-11-20 00:22:00,39.2,27.6,29.50,NW,315,1.6,6.5,63,0.00,,,0.00,WUHU216HW,2013-11-20 07:22:00,
2013-11-20 00:23:00,39.2,27.6,29.50,NW,315,2.2,6.5,63,0.00,,,0.00,WUHU216HW,2013-11-20 07:23:00,
2013-11-20 00:25:00,38.9,27.6,29.50,NNW,338,3.1,6.5,64,0.00,,,0.00,WUHU216HW,2013-11-20 07:25:00,
2013-11-20 00:26:00,38.9,27.6,29.50,NNW,338,3.1,6.5,64,0.00,,,0.00,WUHU216HW,2013-11-20 07:26:00,
2013-11-20 00:28:00,38.9,27.6,29.50,NW,315,4.0,6.5,64,0.00,,,0.00,WUHU216HW,2013-11-20 07:28:00,
2013-11-20 00:30:00,38.7,27.5,29.50,West,270,4.0,4.0,64,0.00,,,0.00,WUHU216HW,2013-11-20 07:30:00,
2013-11-20 00:31:00,38.7,27.9,29.50,WNW,293,5.6,6.9,65,0.00,,,0.00,WUHU216HW,2013-11-20 07:31:00,
2013-11-20 00:33:00,38.7,28.3,29.50,WNW,293,3.4,6.9,66,0.00,,,0.00,WUHU216HW,2013-11-20 07:33:00,
2013-11-20 00:34:00,38.7,27.9,29.50,WNW,293,2.5,6.9,65,0.00,,,0.00,WUHU216HW,2013-11-20 07:34:00,
2013-11-20 00:35:00,38.9,28.5,29.50,NE,45,1.8,6.9,66,0.00,,,0.00,WUHU216HW,2013-11-20 07:35:00,
2013-11-20 00:36:00,38.9,28.0,29.50,ENE,68,2.7,6.9,65,0.00,,,0.00,WUHU216HW,2013-11-20 07:36:00,
2013-11-20 00:37:00,38.9,27.6,29.50,ENE,68,2.7,6.9,64,0.00,,,0.00,WUHU216HW,2013-11-20 07:37:00,
2013-11-20 00:38:00,38.9,27.6,29.50,ENE,68,2.5,6.9,64,0.00,,,0.00,WUHU216HW,2013-11-20 07:38:00,
2013-11-20 00:39:00,38.9,28.5,29.50,NE,45,2.9,6.9,66,0.00,,,0.00,WUHU216HW,2013-11-20 07:39:00,
2013-11-20 00:40:00,38.9,28.5,29.50,North,0,1.6,6.9,66,0.00,,,0.00,WUHU216HW,2013-11-20 07:40:00,
2013-11-20 00:41:00,38.9,28.0,29.50,WNW,293,1.3,5.8,65,0.00,,,0.00,WUHU216HW,2013-11-20 07:41:00,
2013-11-20 00:42:00,38.9,28.0,29.50,WSW,248,2.0,5.8,65,0.00,,,0.00,WUHU216HW,2013-11-20 07:42:00,
2013-11-20 00:43:00,38.9,28.0,29.50,West,270,1.1,3.4,65,0.00,,,0.00,WUHU216HW,2013-11-20 07:43:00,
2013-11-20 00:44:00,38.9,27.6,29.50,West,270,0.2,2.9,64,0.00,,,0.00,WUHU216HW,2013-11-20 07:44:00,
2013-11-20 00:46:00,38.9,27.6,29.50,East,90,0.2,2.9,64,0.00,,,0.00,WUHU216HW,2013-11-20 07:46:00,
2013-11-20 00:47:00,39.1,27.8,29.50,WSW,248,0.2,2.9,64,0.00,,,0.00,WUHU216HW,2013-11-20 07:47:00,
2013-11-20 00:48:00,39.1,27.5,29.50,WNW,293,0.4,2.9,63,0.00,,,0.00,WUHU216HW,2013-11-20 07:48:00,
2013-11-20 00:49:00,39.1,27.8,29.50,NNW,338,0.4,2.7,64,0.00,,,0.00,WUHU216HW,2013-11-20 07:49:00,
2013-11-20 00:51:00,39.1,28.2,29.50,North,0,5.1,5.1,65,0.00,,,0.00,WUHU216HW,2013-11-20 07:51:00,
2013-11-20 00:52:00,38.9,28.0,29.50,North,0,4.9,5.1,65,0.00,,,0.00,WUHU216HW,2013-11-20 07:52:00,
2013-11-20 00:53:00,38.5,27.7,29.50,North,0,5.1,5.6,65,0.00,,,0.00,WUHU216HW,2013-11-20 07:53:00,
2013-11-20 00:54:00,38.5,28.1,29.50,NNW,338,2.5,5.6,66,0.00,,,0.00,WUHU216HW,2013-11-20 07:54:00,
2013-11-20 00:56:00,38.0,27.6,29.50,NNW,338,4.5,5.6,66,0.00,,,0.00,WUHU216HW,2013-11-20 07:56:00,
2013-11-20 00:57:00,37.8,27.8,29.50,NNW,338,4.3,5.6,67,0.00,,,0.00,WUHU216HW,2013-11-20 07:57:00,
2013-11-20 00:58:00,37.3,27.3,29.50,NNW,338,3.4,5.6,67,0.00,,,0.00,WUHU216HW,2013-11-20 07:58:00,
2013-11-20 00:59:00,37.1,27.6,29.50,NW,315,3.8,5.6,68,0.00,,,0.00,WUHU216HW,2013-11-20 07:59:00,
2013-11-20 01:02:00,36.7,27.9,29.50,NW,315,5.8,6.5,70,0.00,,,0.00,WUHU216HW,2013-11-20 08:02:00,
2013-11-20 01:03:00,36.7,27.9,29.50,NNW,338,3.1,6.5,70,0.00,,,0.00,WUHU216HW,2013-11-20 08:03:00,
2013-11-20 01:04:00,36.7,27.9,29.50,NNW,338,3.4,6.5,70,0.00,,,0.00,WUHU216HW,2013-11-20 08:04:00,
2013-11-20 01:07:00,36.4,27.2,29.50,WNW,293,5.8,6.5,69,0.00,,,0.00,WUHU216HW,2013-11-20 08:07:00,
2013-11-20 01:08:00,36.4,27.2,29.50,WNW,293,5.6,6.5,69,0.00,,,0.00,WUHU216HW,2013-11-20 08:08:00,
2013-11-20 01:09:00,36.4,26.8,29.50,NW,315,8.1,8.1,68,0.00,,,0.00,WUHU216HW,2013-11-20 08:09:00,
2013-11-20 01:12:00,36.0,26.5,29.49,NW,315,7.4,8.1,68,0.00,,,0.00,WUHU216HW,2013-11-20 08:12:00,
2013-11-20 01:13:00,36.0,26.5,29.49,NW,315,5.4,8.1,68,0.00,,,0.00,WUHU216HW,2013-11-20 08:13:00,
2013-11-20 01:14:00,36.0,26.8,29.50,NW,315,6.5,8.1,69,0.00,,,0.00,WUHU216HW,2013-11-20 08:14:00,
2013-11-20 01:17:00,35.8,26.3,29.50,NNW,338,4.3,8.9,68,0.00,,,0.00,WUHU216HW,2013-11-20 08:17:00,
2013-11-20 01:18:00,35.8,26.3,29.50,NNW,338,2.9,8.9,68,0.00,,,0.00,WUHU216HW,2013-11-20 08:18:00,
2013-11-20 01:19:00,35.6,26.5,29.50,NNW,338,2.9,8.9,69,0.00,,,0.00,WUHU216HW,2013-11-20 08:19:00,
2013-11-20 01:22:00,35.5,25.9,29.49,WNW,293,3.4,8.9,68,0.00,,,0.00,WUHU216HW,2013-11-20 08:22:00,
2013-11-20 01:23:00,35.5,25.9,29.49,WNW,293,3.4,8.9,68,0.00,,,0.00,WUHU216HW,2013-11-20 08:23:00,
2013-11-20 01:24:00,35.5,26.3,29.49,NW,315,4.5,8.9,69,0.00,,,0.00,WUHU216HW,2013-11-20 08:24:00,
2013-11-20 01:25:00,35.5,26.3,29.49,NNW,338,4.7,8.9,69,0.00,,,0.00,WUHU216HW,2013-11-20 08:25:00,
2013-11-20 01:28:00,34.9,25.0,29.50,NW,315,4.5,6.9,67,0.00,,,0.00,WUHU216HW,2013-11-20 08:28:00,
2013-11-20 01:29:00,34.9,25.0,29.50,NW,315,4.5,6.9,67,0.00,,,0.00,WUHU216HW,2013-11-20 08:29:00,
2013-11-20 01:30:00,34.4,24.5,29.49,NW,315,9.2,9.2,67,0.00,,,0.00,WUHU216HW,2013-11-20 08:30:00,
2013-11-20 01:33:00,32.9,23.9,29.49,NW,315,11.4,13.0,69,0.00,,,0.00,WUHU216HW,2013-11-20 08:33:00,
2013-11-20 01:34:00,32.9,23.9,29.49,NW,315,11.4,13.0,69,0.00,,,0.00,WUHU216HW,2013-11-20 08:34:00,
2013-11-20 01:35:00,32.4,23.4,29.49,NW,315,8.3,13.0,69,0.00,,,0.00,WUHU216HW,2013-11-20 08:35:00,
2013-11-20 01:39:00,30.6,22.0,29.49,WNW,293,10.1,15.2,70,0.00,,,0.00,WUHU216HW,2013-11-20 08:39:00,
2013-11-20 01:40:00,30.4,21.8,29.49,NW,315,10.3,15.2,70,0.00,,,0.00,WUHU216HW,2013-11-20 08:40:00,
2013-11-20 01:44:00,29.2,21.6,29.50,NW,315,11.9,15.2,73,0.00,,,0.00,WUHU216HW,2013-11-20 08:44:00,
2013-11-20 01:45:00,29.2,21.6,29.50,WNW,293,12.1,15.2,73,0.00,,,0.00,WUHU216HW,2013-11-20 08:45:00,
2013-11-20 01:49:00,28.8,21.5,29.50,WNW,293,10.5,15.0,74,0.00,,,0.00,WUHU216HW,2013-11-20 08:49:00,
2013-11-20 01:50:00,28.8,21.9,29.50,WNW,293,9.8,15.0,75,0.00,,,0.00,WUHU216HW,2013-11-20 08:50:00,
2013-11-20 01:51:00,29.0,21.7,29.50,WNW,293,7.8,15.0,74,0.00,,,0.00,WUHU216HW,2013-11-20 08:51:00,
2013-11-20 01:54:00,29.0,21.7,29.50,NW,315,10.5,15.0,74,0.00,,,0.00,WUHU216HW,2013-11-20 08:54:00,
2013-11-20 01:55:00,29.0,21.7,29.49,NW,315,9.8,15.0,74,0.00,,,0.00,WUHU216HW,2013-11-20 08:55:00,
2013-11-20 01:56:00,29.0,21.7,29.49,NW,315,9.4,12.1,74,0.00,,,0.00,WUHU216HW,2013-11-20 08:56:00,
2013-11-20 02:00:00,29.2,21.9,29.49,NW,315,8.3,12.8,74,0.00,,,0.00,WUHU216HW,2013-11-20 09:00:00,
2013-11-20 02:01:00,29.0,21.7,29.50,NW,315,6.7,12.8,74,0.00,,,0.00,WUHU216HW,2013-11-20 09:01:00,
2013-11-20 02:05:00,28.8,21.3,29.51,SW,225,0.4,12.8,73,0.00,,,0.00,WUHU216HW,2013-11-20 09:05:00,
2013-11-20 02:06:00,28.8,21.3,29.51,NE,45,3.4,12.8,73,0.00,,,0.00,WUHU216HW,2013-11-20 09:06:00,
2013-11-20 02:10:00,27.7,19.9,29.51,NW,315,10.5,10.5,72,0.00,,,0.00,WUHU216HW,2013-11-20 09:10:00,
2013-11-20 02:11:00,27.4,19.5,29.51,NNW,338,9.4,10.5,72,0.00,,,0.00,WUHU216HW,2013-11-20 09:11:00,
2013-11-20 02:12:00,27.0,19.2,29.51,NNW,338,12.8,12.8,72,0.00,,,0.00,WUHU216HW,2013-11-20 09:12:00,
2013-11-20 02:15:00,26.1,18.5,29.51,NW,315,14.5,16.3,73,0.00,,,0.00,WUHU216HW,2013-11-20 09:15:00,
2013-11-20 02:16:00,26.1,18.5,29.51,WNW,293,14.8,16.3,73,0.00,,,0.00,WUHU216HW,2013-11-20 09:16:00,
2013-11-20 02:17:00,25.9,18.4,29.51,WNW,293,12.3,16.3,73,0.00,,,0.00,WUHU216HW,2013-11-20 09:17:00,
2013-11-20 02:20:00,25.4,17.9,29.51,NW,315,12.8,16.3,73,0.00,,,0.00,WUHU216HW,2013-11-20 09:20:00,
2013-11-20 02:21:00,25.4,17.9,29.51,NW,315,12.8,16.3,73,0.00,,,0.00,WUHU216HW,2013-11-20 09:21:00,
2013-11-20 02:22:00,25.2,18.0,29.51,WNW,293,11.4,16.3,74,0.00,,,0.00,WUHU216HW,2013-11-20 09:22:00,
2013-11-20 02:25:00,25.0,18.2,29.51,West,270,13.2,15.7,75,0.00,,,0.00,WUHU216HW,2013-11-20 09:25:00,
2013-11-20 02:26:00,25.0,18.2,29.51,NW,315,11.9,15.7,75,0.00,,,0.00,WUHU216HW,2013-11-20 09:26:00,
2013-11-20 02:27:00,24.8,18.0,29.51,WNW,293,14.1,15.7,75,0.00,,,0.00,WUHU216HW,2013-11-20 09:27:00,
2013-11-20 02:31:00,24.8,18.0,29.51,WNW,293,9.6,15.2,75,0.00,,,0.00,WUHU216HW,2013-11-20 09:31:00,
2013-11-20 02:32:00,25.0,18.5,29.51,NW,315,11.4,15.2,76,0.00,,,0.00,WUHU216HW,2013-11-20 09:32:00,
2013-11-20 02:33:00,24.8,18.0,29.51,NW,315,11.4,15.2,75,0.00,,,0.00,WUHU216HW,2013-11-20 09:33:00,
2013-11-20 02:36:00,24.8,18.6,29.51,WNW,293,11.4,15.2,77,0.00,,,0.00,WUHU216HW,2013-11-20 09:36:00,
2013-11-20 02:37:00,24.8,18.6,29.51,WNW,293,14.8,15.2,77,0.00,,,0.00,WUHU216HW,2013-11-20 09:37:00,
2013-11-20 02:38:00,24.8,18.6,29.51,NW,315,7.8,15.2,77,0.00,,,0.00,WUHU216HW,2013-11-20 09:38:00,
2013-11-20 02:41:00,25.0,18.8,29.51,WNW,293,13.9,15.2,77,0.00,,,0.00,WUHU216HW,2013-11-20 09:41:00,
2013-11-20 02:42:00,25.0,18.8,29.51,NW,315,10.3,15.2,77,0.00,,,0.00,WUHU216HW,2013-11-20 09:42:00,
2013-11-20 02:43:00,25.0,18.8,29.51,WNW,293,6.9,15.0,77,0.00,,,0.00,WUHU216HW,2013-11-20 09:43:00,
2013-11-20 02:44:00,25.2,19.0,29.51,WNW,293,12.1,15.0,77,0.00,,,0.00,WUHU216HW,2013-11-20 09:44:00,
2013-11-20 02:46:00,25.4,19.2,29.51,WNW,293,9.4,15.0,77,0.00,,,0.00,WUHU216HW,2013-11-20 09:46:00,
2013-11-20 02:47:00,25.4,19.2,29.52,NW,315,8.5,15.0,77,0.00,,,0.00,WUHU216HW,2013-11-20 09:47:00,
2013-11-20 02:48:00,25.4,19.2,29.52,NW,315,10.1,13.9,77,0.00,,,0.00,WUHU216HW,2013-11-20 09:48:00,
2013-11-20 02:49:00,25.6,19.6,29.51,NW,315,7.4,13.9,78,0.00,,,0.00,WUHU216HW,2013-11-20 09:49:00,
2013-11-20 02:51:00,25.7,19.5,29.51,WNW,293,9.2,13.9,77,0.00,,,0.00,WUHU216HW,2013-11-20 09:51:00,
2013-11-20 02:52:00,25.7,19.5,29.52,NW,315,10.5,12.1,77,0.00,,,0.00,WUHU216HW,2013-11-20 09:52:00,
2013-11-20 02:54:00,25.7,19.2,29.51,WNW,293,8.1,11.4,76,0.00,,,0.00,WUHU216HW,2013-11-20 09:54:00,
2013-11-20 02:56:00,25.7,19.2,29.51,NW,315,12.1,12.1,76,0.00,,,0.00,WUHU216HW,2013-11-20 09:56:00,
2013-11-20 02:57:00,25.9,19.4,29.52,WNW,293,11.0,12.1,76,0.00,,,0.00,WUHU216HW,2013-11-20 09:57:00,
2013-11-20 02:59:00,25.7,18.8,29.51,WNW,293,9.2,12.1,75,0.00,,,0.00,WUHU216HW,2013-11-20 09:59:00,
2013-11-20 03:01:00,25.6,18.7,29.51,NW,315,9.2,12.3,75,0.00,,,0.00,WUHU216HW,2013-11-20 10:01:00,
2013-11-20 03:02:00,25.6,18.4,29.51,WNW,293,10.1,12.3,74,0.00,,,0.00,WUHU216HW,2013-11-20 10:02:00,
2013-11-20 03:03:00,25.4,18.2,29.51,NW,315,12.5,12.5,74,0.00,,,0.00,WUHU216HW,2013-11-20 10:03:00,
2013-11-20 03:05:00,25.2,18.0,29.51,WNW,293,11.2,12.5,74,0.00,,,0.00,WUHU216HW,2013-11-20 10:05:00,
2013-11-20 03:06:00,25.2,18.0,29.51,NW,315,8.5,12.5,74,0.00,,,0.00,WUHU216HW,2013-11-20 10:06:00,
2013-11-20 03:07:00,25.2,18.4,29.51,NW,315,5.8,12.5,75,0.00,,,0.00,WUHU216HW,2013-11-20 10:07:00,
2013-11-20 03:08:00,25.2,18.4,29.51,NW,315,5.4,12.5,75,0.00,,,0.00,WUHU216HW,2013-11-20 10:08:00,
2013-11-20 03:10:00,25.0,18.2,29.51,NW,315,12.1,12.5,75,0.00,,,0.00,WUHU216HW,2013-11-20 10:10:00,
2013-11-20 03:11:00,24.8,18.0,29.51,NW,315,9.2,12.5,75,0.00,,,0.00,WUHU216HW,2013-11-20 10:11:00,
2013-11-20 03:12:00,24.8,18.0,29.51,NW,315,7.2,12.5,75,0.00,,,0.00,WUHU216HW,2013-11-20 10:12:00,
2013-11-20 03:13:00,24.8,18.0,29.51,NW,315,8.7,12.1,75,0.00,,,0.00,WUHU216HW,2013-11-20 10:13:00,
2013-11-20 03:15:00,24.7,17.8,29.51,NNW,338,10.5,12.1,75,0.00,,,0.00,WUHU216HW,2013-11-20 10:15:00,
2013-11-20 03:16:00,24.3,17.5,29.51,NW,315,13.9,14.1,75,0.00,,,0.00,WUHU216HW,2013-11-20 10:16:00,
2013-11-20 03:17:00,24.1,17.3,29.51,NW,315,16.1,16.1,75,0.00,,,0.00,WUHU216HW,2013-11-20 10:17:00,
2013-11-20 03:18:00,24.1,17.3,29.51,WNW,293,15.0,16.1,75,0.00,,,0.00,WUHU216HW,2013-11-20 10:18:00,
2013-11-20 03:20:00,24.1,17.7,29.51,NW,315,13.6,16.1,76,0.00,,,0.00,WUHU216HW,2013-11-20 10:20:00,
2013-11-20 03:22:00,23.9,17.5,29.51,NW,315,12.5,16.1,76,0.00,,,0.00,WUHU216HW,2013-11-20 10:22:00,
2013-11-20 03:23:00,23.8,17.3,29.51,NW,315,12.8,16.1,76,0.00,,,0.00,WUHU216HW,2013-11-20 10:23:00,
2013-11-20 03:24:00,23.8,17.3,29.50,NW,315,14.3,16.3,76,0.00,,,0.00,WUHU216HW,2013-11-20 10:24:00,
2013-11-20 03:25:00,23.8,17.7,29.51,NW,315,11.0,16.3,77,0.00,,,0.00,WUHU216HW,2013-11-20 10:25:00,
2013-11-20 03:27:00,23.8,17.3,29.51,NW,315,14.8,16.3,76,0.00,,,0.00,WUHU216HW,2013-11-20 10:27:00,
2013-11-20 03:28:00,23.6,17.1,29.51,WNW,293,8.3,16.3,76,0.00,,,0.00,WUHU216HW,2013-11-20 10:28:00,
2013-11-20 03:29:00,23.6,17.1,29.51,NW,315,12.1,16.3,76,0.00,,,0.00,WUHU216HW,2013-11-20 10:29:00,
2013-11-20 03:30:00,23.4,16.9,29.51,NW,315,15.0,16.3,76,0.00,,,0.00,WUHU216HW,2013-11-20 10:30:00,
2013-11-20 03:32:00,22.9,16.1,29.50,NW,315,16.8,16.8,75,0.00,,,0.00,WUHU216HW,2013-11-20 10:32:00,
2013-11-20 03:33:00,22.9,16.1,29.50,NW,315,16.8,16.8,75,0.00,,,0.00,WUHU216HW,2013-11-20 10:33:00,
2013-11-20 03:35:00,21.6,15.1,29.50,NNW,338,20.1,22.6,76,0.00,,,0.00,WUHU216HW,2013-11-20 10:35:00,
2013-11-20 03:36:00,21.2,14.8,29.50,NW,315,20.1,22.6,76,0.00,,,0.00,WUHU216HW,2013-11-20 10:36:00,
2013-11-20 03:38:00,21.1,14.6,29.50,NW,315,19.2,22.6,76,0.00,,,0.00,WUHU216HW,2013-11-20 10:38:00,
2013-11-20 03:40:00,20.9,14.8,29.50,NW,315,18.8,23.7,77,0.00,,,0.00,WUHU216HW,2013-11-20 10:40:00,
2013-11-20 03:41:00,21.1,15.2,29.51,NNW,338,16.6,23.7,78,0.00,,,0.00,WUHU216HW,2013-11-20 10:41:00,
2013-11-20 03:43:00,21.2,15.4,29.51,NW,315,16.6,23.7,78,0.00,,,0.00,WUHU216HW,2013-11-20 10:43:00,
2013-11-20 03:46:00,21.6,15.8,29.51,WNW,293,12.1,23.7,78,0.00,,,0.00,WUHU216HW,2013-11-20 10:46:00,
2013-11-20 03:47:00,21.8,15.9,29.51,WNW,293,15.0,23.7,78,0.00,,,0.00,WUHU216HW,2013-11-20 10:47:00,
2013-11-20 03:48:00,22.0,16.1,29.50,NNW,338,15.4,23.7,78,0.00,,,0.00,WUHU216HW,2013-11-20 10:48:00,
2013-11-20 03:52:00,22.3,16.2,29.51,WNW,293,21.0,21.0,77,0.00,,,0.00,WUHU216HW,2013-11-20 10:52:00,
2013-11-20 03:53:00,22.3,16.2,29.51,WNW,293,19.7,21.0,77,0.00,,,0.00,WUHU216HW,2013-11-20 10:53:00,
2013-11-20 03:57:00,22.7,16.6,29.50,NW,315,15.4,21.0,77,0.00,,,0.00,WUHU216HW,2013-11-20 10:57:00,
2013-11-20 03:58:00,22.7,16.2,29.50,NW,315,20.4,21.5,76,0.00,,,0.00,WUHU216HW,2013-11-20 10:58:00,
2013-11-20 03:59:00,22.5,16.0,29.50,NW,315,16.3,21.5,76,0.00,,,0.00,WUHU216HW,2013-11-20 10:59:00,
2013-11-20 04:02:00,22.3,16.2,29.50,NW,315,13.2,21.5,77,0.00,,,0.00,WUHU216HW,2013-11-20 11:02:00,
2013-11-20 04:03:00,22.3,16.2,29.50,NNW,338,11.4,21.5,77,0.00,,,0.00,WUHU216HW,2013-11-20 11:03:00,
2013-11-20 04:04:00,22.5,16.4,29.50,NW,315,16.6,21.5,77,0.00,,,0.00,WUHU216HW,2013-11-20 11:04:00,
2013-11-20 04:05:00,22.5,16.4,29.50,NW,315,14.5,21.5,77,0.00,,,0.00,WUHU216HW,2013-11-20 11:05:00,
2013-11-20 04:08:00,22.5,16.4,29.50,NW,315,14.1,20.4,77,0.00,,,0.00,WUHU216HW,2013-11-20 11:08:00,
2013-11-20 04:09:00,22.5,16.0,29.50,NW,315,16.6,17.9,76,0.00,,,0.00,WUHU216HW,2013-11-20 11:09:00,
2013-11-20 04:10:00,22.1,15.7,29.50,NW,315,13.9,17.0,76,0.00,,,0.00,WUHU216HW,2013-11-20 11:10:00,
2013-11-20 04:13:00,22.0,15.2,29.50,NW,315,19.2,20.1,75,0.00,,,0.00,WUHU216HW,2013-11-20 11:13:00,
2013-11-20 04:14:00,21.8,15.0,29.50,NW,315,18.1,20.1,75,0.00,,,0.00,WUHU216HW,2013-11-20 11:14:00,
2013-11-20 04:15:00,21.8,15.0,29.50,NNW,338,19.9,21.0,75,0.00,,,0.00,WUHU216HW,2013-11-20 11:15:00,
2013-11-20 04:16:00,21.6,14.9,29.50,NW,315,11.9,21.0,75,0.00,,,0.00,WUHU216HW,2013-11-20 11:16:00,
2013-11-20 04:18:00,21.4,14.9,29.50,WNW,293,17.7,21.0,76,0.00,,,0.00,WUHU216HW,2013-11-20 11:18:00,
2013-11-20 04:19:00,21.2,14.5,29.51,WNW,293,19.5,21.0,75,0.00,,,0.00,WUHU216HW,2013-11-20 11:19:00,
2013-11-20 04:20:00,21.2,14.8,29.50,NW,315,15.7,21.0,76,0.00,,,0.00,WUHU216HW,2013-11-20 11:20:00,
2013-11-20 04:21:00,21.2,14.8,29.51,NW,315,19.9,21.3,76,0.00,,,0.00,WUHU216HW,2013-11-20 11:21:00,
2013-11-20 04:24:00,21.2,14.8,29.51,NW,315,17.4,21.3,76,0.00,,,0.00,WUHU216HW,2013-11-20 11:24:00,
2013-11-20 04:25:00,21.2,14.8,29.51,NW,315,21.3,21.3,76,0.00,,,0.00,WUHU216HW,2013-11-20 11:25:00,
2013-11-20 04:26:00,21.2,14.5,29.51,NW,315,19.2,25.3,75,0.00,,,0.00,WUHU216HW,2013-11-20 11:26:00,
2013-11-20 04:29:00,21.1,14.3,29.51,WNW,293,21.7,25.3,75,0.00,,,0.00,WUHU216HW,2013-11-20 11:29:00,
2013-11-20 04:30:00,21.1,14.3,29.51,NW,315,15.4,25.3,75,0.00,,,0.00,WUHU216HW,2013-11-20 11:30:00,
2013-11-20 04:31:00,21.1,14.3,29.51,NW,315,20.8,25.3,75,0.00,,,0.00,WUHU216HW,2013-11-20 11:31:00,
2013-11-20 04:34:00,21.1,14.1,29.51,NNW,338,16.1,25.3,74,0.00,,,0.00,WUHU216HW,2013-11-20 11:34:00,
2013-11-20 04:35:00,21.1,14.3,29.51,WNW,293,16.3,25.3,75,0.00,,,0.00,WUHU216HW,2013-11-20 11:35:00,
2013-11-20 04:36:00,21.1,14.3,29.51,WNW,293,19.2,24.2,75,0.00,,,0.00,WUHU216HW,2013-11-20 11:36:00,
2013-11-20 04:39:00,21.2,14.5,29.51,NW,315,15.7,23.0,75,0.00,,,0.00,WUHU216HW,2013-11-20 11:39:00,
2013-11-20 04:40:00,21.2,14.5,29.51,WNW,293,15.9,23.0,75,0.00,,,0.00,WUHU216HW,2013-11-20 11:40:00,
2013-11-20 04:41:00,21.2,14.5,29.51,NW,315,17.2,23.0,75,0.00,,,0.00,WUHU216HW,2013-11-20 11:41:00,
2013-11-20 04:45:00,21.2,14.8,29.51,WNW,293,17.2,22.1,76,0.00,,,0.00,WUHU216HW,2013-11-20 11:45:00,
2013-11-20 04:46:00,21.2,14.5,29.51,WNW,293,18.1,22.1,75,0.00,,,0.00,WUHU216HW,2013-11-20 11:46:00,
2013-11-20 04:50:00,21.2,14.5,29.51,NW,315,16.3,22.1,75,0.00,,,0.00,WUHU216HW,2013-11-20 11:50:00,
2013-11-20 04:51:00,21.2,14.5,29.51,West,270,15.7,21.3,75,0.00,,,0.00,WUHU216HW,2013-11-20 11:51:00,
2013-11-20 04:52:00,21.2,14.5,29.51,WNW,293,15.0,21.3,75,0.00,,,0.00,WUHU216HW,2013-11-20 11:52:00,
2013-11-20 04:55:00,21.2,14.8,29.51,NW,315,16.3,18.3,76,0.00,,,0.00,WUHU216HW,2013-11-20 11:55:00,
2013-11-20 04:56:00,21.2,14.8,29.51,WNW,293,15.4,18.3,76,0.00,,,0.00,WUHU216HW,2013-11-20 11:56:00,
2013-11-20 04:57:00,21.2,14.8,29.51,WNW,293,15.0,18.3,76,0.00,,,0.00,WUHU216HW,2013-11-20 11:57:00,
2013-11-20 05:00:00,21.2,14.5,29.52,WNW,293,15.4,21.0,75,0.00,,,0.00,WUHU216HW,2013-11-20 12:00:00,
2013-11-20 05:01:00,21.2,14.5,29.52,NW,315,17.2,21.0,75,0.00,,,0.00,WUHU216HW,2013-11-20 12:01:00,
2013-11-20 05:02:00,21.2,14.2,29.52,NW,315,15.7,21.0,74,0.00,,,0.00,WUHU216HW,2013-11-20 12:02:00,
2013-11-20 05:05:00,20.7,13.7,29.52,NW,315,19.5,21.0,74,0.00,,,0.00,WUHU216HW,2013-11-20 12:05:00,
2013-11-20 05:06:00,20.5,13.5,29.52,WNW,293,20.8,21.3,74,0.00,,,0.00,WUHU216HW,2013-11-20 12:06:00,
2013-11-20 05:07:00,20.5,13.5,29.52,NW,315,18.3,23.7,74,0.00,,,0.00,WUHU216HW,2013-11-20 12:07:00,
2013-11-20 05:10:00,20.0,13.2,29.52,NW,315,17.9,23.7,75,0.00,,,0.00,WUHU216HW,2013-11-20 12:10:00,
2013-11-20 05:11:00,19.8,13.1,29.52,NW,315,16.8,23.7,75,0.00,,,0.00,WUHU216HW,2013-11-20 12:11:00,
2013-11-20 05:12:00,19.6,12.9,29.52,WNW,293,23.5,23.7,75,0.00,,,0.00,WUHU216HW,2013-11-20 12:12:00,
2013-11-20 05:13:00,19.4,12.7,29.52,WNW,293,20.8,23.7,75,0.00,,,0.00,WUHU216HW,2013-11-20 12:13:00,
2013-11-20 05:15:00,19.4,12.7,29.52,NW,315,21.7,23.7,75,0.00,,,0.00,WUHU216HW,2013-11-20 12:15:00,
2013-11-20 05:16:00,19.4,12.7,29.52,NW,315,23.9,23.9,75,0.00,,,0.00,WUHU216HW,2013-11-20 12:16:00,
2013-11-20 05:17:00,19.3,12.5,29.52,NW,315,13.9,23.9,75,0.00,,,0.00,WUHU216HW,2013-11-20 12:17:00,
2013-11-20 05:18:00,19.1,12.1,29.52,NW,315,19.5,23.9,74,0.00,,,0.00,WUHU216HW,2013-11-20 12:18:00,
2013-11-20 05:20:00,19.1,12.1,29.52,WNW,293,17.9,23.9,74,0.00,,,0.00,WUHU216HW,2013-11-20 12:20:00,
2013-11-20 05:21:00,18.9,11.9,29.52,WNW,293,18.6,23.9,74,0.00,,,0.00,WUHU216HW,2013-11-20 12:21:00,
2013-11-20 05:22:00,18.9,11.9,29.52,WNW,293,17.0,23.9,74,0.00,,,0.00,WUHU216HW,2013-11-20 12:22:00,
2013-11-20 05:23:00,18.9,12.2,29.52,WNW,293,15.9,23.9,75,0.00,,,0.00,WUHU216HW,2013-11-20 12:23:00,
2013-11-20 05:26:00,18.7,12.0,29.53,NW,315,15.7,23.9,75,0.00,,,0.00,WUHU216HW,2013-11-20 12:26:00,
2013-11-20 05:27:00,18.7,12.0,29.53,NW,315,18.3,22.6,75,0.00,,,0.00,WUHU216HW,2013-11-20 12:27:00,
2013-11-20 05:28:00,18.7,12.0,29.53,WNW,293,15.0,22.6,75,0.00,,,0.00,WUHU216HW,2013-11-20 12:28:00,
2013-11-20 05:31:00,18.9,11.9,29.52,West,270,22.1,22.6,74,0.00,,,0.00,WUHU216HW,2013-11-20 12:31:00,
2013-11-20 05:32:00,18.9,12.2,29.52,NW,315,18.6,22.6,75,0.00,,,0.00,WUHU216HW,2013-11-20 12:32:00,
2013-11-20 05:33:00,18.9,11.9,29.52,WNW,293,19.9,22.6,74,0.00,,,0.00,WUHU216HW,2013-11-20 12:33:00,
2013-11-20 05:37:00,18.5,11.9,29.53,WNW,293,21.0,24.4,75,0.00,,,0.00,WUHU216HW,2013-11-20 12:37:00,
2013-11-20 05:38:00,18.5,11.9,29.53,WNW,293,16.8,24.4,75,0.00,,,0.00,WUHU216HW,2013-11-20 12:38:00,
2013-11-20 05:42:00,18.4,11.3,29.53,NW,315,18.6,25.3,74,0.00,,,0.00,WUHU216HW,2013-11-20 12:42:00,
2013-11-20 05:43:00,18.2,11.2,29.53,WNW,293,19.2,25.3,74,0.00,,,0.00,WUHU216HW,2013-11-20 12:43:00,
2013-11-20 05:44:00,18.2,11.2,29.53,WNW,293,15.7,25.3,74,0.00,,,0.00,WUHU216HW,2013-11-20 12:44:00,
2013-11-20 05:47:00,18.0,11.4,29.53,WNW,293,17.4,25.3,75,0.00,,,0.00,WUHU216HW,2013-11-20 12:47:00,
2013-11-20 05:48:00,18.0,11.4,29.53,WNW,293,17.2,25.3,75,0.00,,,0.00,WUHU216HW,2013-11-20 12:48:00,
2013-11-20 05:49:00,18.0,11.4,29.53,WNW,293,17.2,25.3,75,0.00,,,0.00,WUHU216HW,2013-11-20 12:49:00,
2013-11-20 05:52:00,18.2,11.5,29.53,NW,315,20.8,23.0,75,0.00,,,0.00,WUHU216HW,2013-11-20 12:52:00,
2013-11-20 05:53:00,18.2,11.5,29.53,NW,315,17.2,23.0,75,0.00,,,0.00,WUHU216HW,2013-11-20 12:53:00,
2013-11-20 05:54:00,18.2,11.5,29.53,NW,315,16.3,23.0,75,0.00,,,0.00,WUHU216HW,2013-11-20 12:54:00,
2013-11-20 05:55:00,18.2,11.5,29.53,WNW,293,17.2,23.0,75,0.00,,,0.00,WUHU216HW,2013-11-20 12:55:00,
2013-11-20 05:57:00,18.0,11.1,29.53,WNW,293,19.0,23.7,74,0.00,,,0.00,WUHU216HW,2013-11-20 12:57:00,
2013-11-20 05:58:00,18.0,11.1,29.53,NW,315,19.9,23.7,74,0.00,,,0.00,WUHU216HW,2013-11-20 12:58:00,
2013-11-20 05:59:00,18.0,11.1,29.53,NW,315,19.5,23.7,74,0.00,,,0.00,WUHU216HW,2013-11-20 12:59:00,
2013-11-20 06:00:00,17.8,10.9,29.53,NNW,338,22.4,23.7,74,0.00,,,0.00,WUHU216HW,2013-11-20 13:00:00,
2013-11-20 06:02:00,17.6,10.7,29.53,WNW,293,16.8,23.9,74,0.00,,,0.00,WUHU216HW,2013-11-20 13:02:00,
2013-11-20 06:03:00,17.6,10.7,29.54,WNW,293,19.2,23.9,74,0.00,,,0.00,WUHU216HW,2013-11-20 13:03:00,
2013-11-20 06:04:00,17.6,10.7,29.54,WNW,293,17.4,23.9,74,0.00,,,0.00,WUHU216HW,2013-11-20 13:04:00,
2013-11-20 06:06:00,17.5,10.5,29.54,WNW,293,19.0,23.9,74,0.00,,,0.00,WUHU216HW,2013-11-20 13:06:00,
2013-11-20 06:07:00,17.3,10.4,29.54,NW,315,19.2,23.9,74,0.00,,,0.00,WUHU216HW,2013-11-20 13:07:00,
2013-11-20 06:08:00,17.3,10.6,29.54,NW,315,20.1,23.9,75,0.00,,,0.00,WUHU216HW,2013-11-20 13:08:00,
2013-11-20 06:09:00,17.3,10.6,29.54,NW,315,18.6,23.9,75,0.00,,,0.00,WUHU216HW,2013-11-20 13:09:00,
2013-11-20 06:10:00,17.3,10.6,29.54,NW,315,20.8,23.9,75,0.00,,,0.00,WUHU216HW,2013-11-20 13:10:00,
2013-11-20 06:11:00,17.3,10.6,29.55,NW,315,17.9,23.9,75,0.00,,,0.00,WUHU216HW,2013-11-20 13:11:00,
2013-11-20 06:12:00,17.3,10.6,29.55,WNW,293,20.6,23.0,75,0.00,,,0.00,WUHU216HW,2013-11-20 13:12:00,
2013-11-20 06:14:00,17.5,10.8,29.55,NW,315,15.7,23.0,75,0.00,,,0.00,WUHU216HW,2013-11-20 13:14:00,
2013-11-20 06:15:00,17.5,10.8,29.55,WNW,293,16.3,23.0,75,0.00,,,0.00,WUHU216HW,2013-11-20 13:15:00,
2013-11-20 06:17:00,17.6,11.0,29.55,WNW,293,17.4,21.7,75,0.00,,,0.00,WUHU216HW,2013-11-20 13:17:00,
2013-11-20 06:19:00,17.6,11.0,29.55,NW,315,19.2,21.7,75,0.00,,,0.00,WUHU216HW,2013-11-20 13:19:00,
2013-11-20 06:20:00,17.6,10.7,29.55,NW,315,22.1,23.7,74,0.00,,,0.00,WUHU216HW,2013-11-20 13:20:00,
2013-11-20 06:21:00,17.6,10.7,29.55,WNW,293,21.5,23.7,74,0.00,,,0.00,WUHU216HW,2013-11-20 13:21:00,
2013-11-20 06:23:00,17.5,10.5,29.55,WNW,293,17.9,23.7,74,0.00,,,0.00,WUHU216HW,2013-11-20 13:23:00,
2013-11-20 06:24:00,17.5,10.5,29.55,WNW,293,18.3,23.7,74,0.00,,,0.00,WUHU216HW,2013-11-20 13:24:00,
2013-11-20 06:25:00,17.6,10.7,29.55,West,270,16.8,23.7,74,0.00,,,0.00,WUHU216HW,2013-11-20 13:25:00,
2013-11-20 06:26:00,17.6,10.7,29.55,NW,315,13.9,23.7,74,0.00,,,0.00,WUHU216HW,2013-11-20 13:26:00,
2013-11-20 06:28:00,17.5,10.5,29.55,NW,315,18.8,23.7,74,0.00,,,0.00,WUHU216HW,2013-11-20 13:28:00,
2013-11-20 06:29:00,17.5,10.5,29.55,NW,315,16.3,23.7,74,0.00,,,0.00,WUHU216HW,2013-11-20 13:29:00,
2013-11-20 06:30:00,17.5,10.5,29.56,NW,315,20.6,21.5,74,0.00,,,0.00,WUHU216HW,2013-11-20 13:30:00,
2013-11-20 06:31:00,17.5,10.5,29.56,WNW,293,18.3,21.5,74,0.00,,,0.00,WUHU216HW,2013-11-20 13:31:00,
2013-11-20 06:33:00,17.3,10.4,29.55,WNW,293,16.3,21.5,74,0.00,,,0.00,WUHU216HW,2013-11-20 13:33:00,
2013-11-20 06:34:00,17.3,10.4,29.56,NW,315,14.3,21.5,74,0.00,,,0.00,WUHU216HW,2013-11-20 13:34:00,
2013-11-20 06:35:00,17.3,10.4,29.56,NW,315,20.6,21.5,74,0.00,,,0.00,WUHU216HW,2013-11-20 13:35:00,
2013-11-20 06:36:00,17.3,10.4,29.56,WNW,293,15.0,21.5,74,0.00,,,0.00,WUHU216HW,2013-11-20 13:36:00,
2013-11-20 06:37:00,17.3,10.4,29.56,WNW,293,15.9,21.5,74,0.00,,,0.00,WUHU216HW,2013-11-20 13:37:00,
2013-11-20 06:38:00,17.3,10.4,29.56,WNW,293,16.8,21.5,74,0.00,,,0.00,WUHU216HW,2013-11-20 13:38:00,
2013-11-20 06:39:00,17.3,10.4,29.56,WNW,293,16.8,21.5,74,0.00,,,0.00,WUHU216HW,2013-11-20 13:39:00,
2013-11-20 06:40:00,17.3,10.4,29.56,WNW,293,16.3,21.5,74,0.00,,,0.00,WUHU216HW,2013-11-20 13:40:00,
2013-11-20 06:41:00,17.3,10.6,29.56,WNW,293,14.5,21.5,75,0.00,,,0.00,WUHU216HW,2013-11-20 13:41:00,
2013-11-20 06:42:00,17.3,10.6,29.56,WNW,293,19.2,21.5,75,0.00,,,0.00,WUHU216HW,2013-11-20 13:42:00,
2013-11-20 06:44:00,17.5,10.8,29.56,WNW,293,19.2,21.5,75,0.00,,,0.00,WUHU216HW,2013-11-20 13:44:00,
2013-11-20 06:46:00,17.6,11.0,29.56,NW,315,19.7,20.8,75,0.00,,,0.00,WUHU216HW,2013-11-20 13:46:00,
2013-11-20 06:47:00,17.6,11.0,29.56,WNW,293,16.8,20.8,75,0.00,,,0.00,WUHU216HW,2013-11-20 13:47:00,
2013-11-20 06:48:00,17.6,11.0,29.56,NW,315,14.3,20.8,75,0.00,,,0.00,WUHU216HW,2013-11-20 13:48:00,
2013-11-20 06:49:00,17.8,11.2,29.56,WNW,293,17.9,20.8,75,0.00,,,0.00,WUHU216HW,2013-11-20 13:49:00,
2013-11-20 06:50:00,17.8,11.2,29.56,WNW,293,12.5,20.8,75,0.00,,,0.00,WUHU216HW,2013-11-20 13:50:00,
2013-11-20 06:51:00,18.0,11.4,29.56,WNW,293,13.6,20.8,75,0.00,,,0.00,WUHU216HW,2013-11-20 13:51:00,
2013-11-20 06:52:00,18.0,11.4,29.56,WNW,293,12.1,20.8,75,0.00,,,0.00,WUHU216HW,2013-11-20 13:52:00,
2013-11-20 06:53:00,18.0,11.4,29.56,NW,315,13.0,20.8,75,0.00,,,0.00,WUHU216HW,2013-11-20 13:53:00,
2013-11-20 06:54:00,18.0,11.4,29.56,WNW,293,15.0,20.8,75,0.00,,,0.00,WUHU216HW,2013-11-20 13:54:00,
2013-11-20 06:55:00,18.0,11.1,29.56,NW,315,13.2,19.7,74,0.00,,,0.00,WUHU216HW,2013-11-20 13:55:00,
2013-11-20 06:57:00,18.0,11.4,29.56,WNW,293,15.0,18.6,75,0.00,,,0.00,WUHU216HW,2013-11-20 13:57:00,
2013-11-20 06:58:00,17.8,11.2,29.56,NW,315,15.9,17.9,75,0.00,,,0.00,WUHU216HW,2013-11-20 13:58:00,
2013-11-20 06:59:00,17.6,11.0,29.56,NW,315,20.1,21.0,75,0.00,,,0.00,WUHU216HW,2013-11-20 13:59:00,
2013-11-20 07:01:00,17.3,10.9,29.56,NW,315,17.4,21.0,76,0.00,,,0.00,WUHU216HW,2013-11-20 14:01:00,
2013-11-20 07:02:00,17.1,11.1,29.56,NW,315,18.6,21.0,77,0.00,,,0.00,WUHU216HW,2013-11-20 14:02:00,
2013-11-20 07:04:00,16.9,11.2,29.56,NW,315,19.0,21.0,78,0.00,,,0.00,WUHU216HW,2013-11-20 14:04:00,
2013-11-20 07:05:00,16.9,11.2,29.56,NW,315,20.6,21.0,78,0.00,,,0.00,WUHU216HW,2013-11-20 14:05:00,
2013-11-20 07:06:00,16.9,11.5,29.56,WNW,293,22.8,22.8,79,0.00,,,0.00,WUHU216HW,2013-11-20 14:06:00,
2013-11-20 07:07:00,16.9,11.5,29.56,WNW,293,27.5,27.5,79,0.00,,,0.00,WUHU216HW,2013-11-20 14:07:00,
2013-11-20 07:09:00,16.6,11.2,29.56,NW,315,27.1,27.5,79,0.00,,,0.00,WUHU216HW,2013-11-20 14:09:00,
2013-11-20 07:11:00,16.6,11.2,29.56,West,270,21.0,28.2,79,0.00,,,0.00,WUHU216HW,2013-11-20 14:11:00,
2013-11-20 07:12:00,16.6,11.4,29.56,NW,315,28.2,28.2,80,0.00,,,0.00,WUHU216HW,2013-11-20 14:12:00,
2013-11-20 07:13:00,16.6,11.4,29.56,NW,315,28.2,29.3,80,0.00,,,0.00,WUHU216HW,2013-11-20 14:13:00,
2013-11-20 07:14:00,16.4,11.3,29.56,WNW,293,21.5,29.3,80,0.00,,,0.00,WUHU216HW,2013-11-20 14:14:00,
2013-11-20 07:16:00,16.4,11.3,29.56,WNW,293,25.5,29.3,80,0.00,,,0.00,WUHU216HW,2013-11-20 14:16:00,
2013-11-20 07:17:00,16.2,11.2,29.56,WNW,293,26.6,29.3,80,0.00,,,0.00,WUHU216HW,2013-11-20 14:17:00,
2013-11-20 07:18:00,16.2,11.3,29.56,WNW,293,24.4,29.3,81,0.00,,,0.00,WUHU216HW,2013-11-20 14:18:00,
2013-11-20 07:19:00,16.2,11.3,29.57,NW,315,25.9,29.3,81,0.00,,,0.00,WUHU216HW,2013-11-20 14:19:00,
2013-11-20 07:21:00,16.2,11.3,29.57,NW,315,18.3,29.3,81,0.00,,,0.00,WUHU216HW,2013-11-20 14:21:00,
2013-11-20 07:22:00,16.2,11.3,29.57,WNW,293,17.2,28.9,81,0.00,,,0.00,WUHU216HW,2013-11-20 14:22:00,
2013-11-20 07:23:00,16.2,11.3,29.57,WNW,293,23.9,28.9,81,0.00,,,0.00,WUHU216HW,2013-11-20 14:23:00,
2013-11-20 07:24:00,16.2,11.6,29.58,NW,315,20.1,28.9,82,0.00,,,0.00,WUHU216HW,2013-11-20 14:24:00,
2013-11-20 07:25:00,16.0,11.4,29.58,WNW,293,26.2,28.9,82,0.00,,,0.00,WUHU216HW,2013-11-20 14:25:00,
2013-11-20 07:26:00,16.0,11.4,29.58,NW,315,23.3,28.9,82,0.00,,,0.00,WUHU216HW,2013-11-20 14:26:00,
2013-11-20 07:28:00,15.8,11.4,29.58,WNW,293,22.4,26.2,82,0.00,,,0.00,WUHU216HW,2013-11-20 14:28:00,
2013-11-20 07:29:00,15.7,11.3,29.58,NW,315,18.6,26.2,83,0.00,,,0.00,WUHU216HW,2013-11-20 14:29:00,
2013-11-20 07:30:00,15.5,11.3,29.58,WNW,293,22.6,26.2,83,0.00,,,0.00,WUHU216HW,2013-11-20 14:30:00,
2013-11-20 07:32:00,15.5,11.4,29.58,NW,315,16.8,26.2,84,0.00,,,0.00,WUHU216HW,2013-11-20 14:32:00,
2013-11-20 07:33:00,15.5,11.4,29.58,WNW,293,20.8,26.2,84,0.00,,,0.00,WUHU216HW,2013-11-20 14:33:00,
2013-11-20 07:34:00,15.5,11.3,29.58,NW,315,20.1,26.2,83,0.00,,,0.00,WUHU216HW,2013-11-20 14:34:00,
2013-11-20 07:35:00,15.3,11.1,29.58,NW,315,21.0,24.4,83,0.00,,,0.00,WUHU216HW,2013-11-20 14:35:00,
2013-11-20 07:37:00,15.1,11.2,29.58,NW,315,20.1,24.4,84,0.00,,,0.00,WUHU216HW,2013-11-20 14:37:00,
2013-11-20 07:38:00,15.1,11.2,29.58,NW,315,15.0,24.4,84,0.00,,,0.00,WUHU216HW,2013-11-20 14:38:00,
2013-11-20 07:39:00,15.1,11.2,29.58,NW,315,21.3,24.4,84,0.00,,,0.00,WUHU216HW,2013-11-20 14:39:00,
2013-11-20 07:40:00,15.1,11.2,29.58,NW,315,21.0,24.4,84,0.00,,,0.00,WUHU216HW,2013-11-20 14:40:00,
2013-11-20 07:43:00,14.9,11.0,29.59,WNW,293,17.4,24.4,84,0.00,,,0.00,WUHU216HW,2013-11-20 14:43:00,
2013-11-20 07:44:00,14.9,11.0,29.59,West,270,17.9,24.4,84,0.00,,,0.00,WUHU216HW,2013-11-20 14:44:00,
2013-11-20 07:45:00,14.9,11.0,29.59,WNW,293,21.0,23.9,84,0.00,,,0.00,WUHU216HW,2013-11-20 14:45:00,
2013-11-20 07:48:00,14.9,11.0,29.59,NW,315,17.4,23.9,84,0.00,,,0.00,WUHU216HW,2013-11-20 14:48:00,
2013-11-20 07:49:00,14.9,11.0,29.59,NW,315,21.0,25.1,84,0.00,,,0.00,WUHU216HW,2013-11-20 14:49:00,
2013-11-20 07:50:00,14.9,10.7,29.59,WNW,293,19.2,25.1,83,0.00,,,0.00,WUHU216HW,2013-11-20 14:50:00,
2013-11-20 07:51:00,14.8,10.8,29.60,WNW,293,17.4,25.1,84,0.00,,,0.00,WUHU216HW,2013-11-20 14:51:00,
2013-11-20 07:53:00,14.9,11.0,29.60,WNW,293,19.2,26.4,84,0.00,,,0.00,WUHU216HW,2013-11-20 14:53:00,
2013-11-20 07:54:00,14.9,11.0,29.59,NW,315,21.9,26.4,84,0.00,,,0.00,WUHU216HW,2013-11-20 14:54:00,
2013-11-20 07:55:00,14.9,11.0,29.59,WNW,293,19.7,26.4,84,0.00,,,0.00,WUHU216HW,2013-11-20 14:55:00,
2013-11-20 07:56:00,14.9,11.0,29.59,WNW,293,20.6,26.4,84,0.00,,,0.00,WUHU216HW,2013-11-20 14:56:00,
2013-11-20 07:58:00,14.8,10.8,29.59,NW,315,20.4,26.4,84,0.00,,,0.00,WUHU216HW,2013-11-20 14:58:00,
2013-11-20 07:59:00,14.9,11.0,29.60,WNW,293,19.2,26.4,84,0.00,,,0.00,WUHU216HW,2013-11-20 14:59:00,
2013-11-20 08:00:00,14.9,11.0,29.60,NW,315,23.0,26.4,84,0.00,,,0.00,WUHU216HW,2013-11-20 15:00:00,
2013-11-20 08:01:00,14.9,11.0,29.59,WNW,293,23.3,26.4,84,0.00,,,0.00,WUHU216HW,2013-11-20 15:01:00,
2013-11-20 08:03:00,14.8,10.8,29.60,WNW,293,22.4,25.1,84,0.00,,,0.00,WUHU216HW,2013-11-20 15:03:00,
2013-11-20 08:04:00,14.9,11.0,29.60,WNW,293,17.9,25.1,84,0.00,,,0.00,WUHU216HW,2013-11-20 15:04:00,
2013-11-20 08:05:00,14.9,11.0,29.60,WNW,293,20.4,25.1,84,0.00,,,0.00,WUHU216HW,2013-11-20 15:05:00,
2013-11-20 08:06:00,14.9,11.0,29.60,NW,315,19.9,25.1,84,0.00,,,0.00,WUHU216HW,2013-11-20 15:06:00,
2013-11-20 08:08:00,15.5,11.7,29.60,NW,315,19.9,23.3,85,0.00,,,0.00,WUHU216HW,2013-11-20 15:08:00,
2013-11-20 08:09:00,15.5,11.7,29.60,WNW,293,24.6,24.6,85,0.00,,,0.00,WUHU216HW,2013-11-20 15:09:00,
2013-11-20 08:10:00,15.7,11.6,29.60,NW,315,25.5,25.5,84,0.00,,,0.00,WUHU216HW,2013-11-20 15:10:00,
2013-11-20 08:11:00,15.5,11.4,29.60,NW,315,25.3,26.6,84,0.00,,,0.00,WUHU216HW,2013-11-20 15:11:00,
2013-11-20 08:13:00,15.7,11.6,29.61,NW,315,18.6,26.6,84,0.00,,,0.00,WUHU216HW,2013-11-20 15:13:00,
2013-11-20 08:14:00,15.7,11.6,29.61,NW,315,17.4,26.6,84,0.00,,,0.00,WUHU216HW,2013-11-20 15:14:00,
2013-11-20 08:15:00,15.7,11.3,29.61,NW,315,20.1,26.6,83,0.00,,,0.00,WUHU216HW,2013-11-20 15:15:00,
2013-11-20 08:16:00,15.5,11.3,29.61,NW,315,19.2,26.6,83,0.00,,,0.00,WUHU216HW,2013-11-20 15:16:00,
2013-11-20 08:17:00,15.5,11.3,29.61,NW,315,15.4,26.6,83,0.00,,,0.00,WUHU216HW,2013-11-20 15:17:00,
2013-11-20 08:18:00,15.5,11.3,29.61,WNW,293,17.0,26.6,83,0.00,,,0.00,WUHU216HW,2013-11-20 15:18:00,
2013-11-20 08:19:00,15.5,11.3,29.61,West,270,19.9,26.6,83,0.00,,,0.00,WUHU216HW,2013-11-20 15:19:00,
2013-11-20 08:20:00,15.5,11.3,29.61,WNW,293,22.4,26.6,83,0.00,,,0.00,WUHU216HW,2013-11-20 15:20:00,
2013-11-20 08:21:00,15.3,10.8,29.61,WNW,293,23.3,24.4,82,0.00,,,0.00,WUHU216HW,2013-11-20 15:21:00,
2013-11-20 08:22:00,15.1,10.4,29.61,WNW,293,22.4,24.4,81,0.00,,,0.00,WUHU216HW,2013-11-20 15:22:00,
2013-11-20 08:23:00,14.9,10.2,29.61,WNW,293,22.8,24.4,81,0.00,,,0.00,WUHU216HW,2013-11-20 15:23:00,
2013-11-20 08:24:00,14.8,10.0,29.61,WNW,293,22.4,24.4,81,0.00,,,0.00,WUHU216HW,2013-11-20 15:24:00,
2013-11-20 08:25:00,14.8,10.0,29.62,WNW,293,24.2,24.4,81,0.00,,,0.00,WUHU216HW,2013-11-20 15:25:00,
2013-11-20 08:26:00,14.8,10.0,29.62,NW,315,24.2,25.5,81,0.00,,,0.00,WUHU216HW,2013-11-20 15:26:00,
2013-11-20 08:27:00,14.6,9.8,29.62,West,270,18.6,25.7,81,0.00,,,0.00,WUHU216HW,2013-11-20 15:27:00,
2013-11-20 08:29:00,14.2,9.5,29.62,WNW,293,25.3,25.7,81,0.00,,,0.00,WUHU216HW,2013-11-20 15:29:00,
2013-11-20 08:30:00,14.2,9.5,29.62,NW,315,18.3,25.7,81,0.00,,,0.00,WUHU216HW,2013-11-20 15:30:00,
2013-11-20 08:31:00,14.0,9.3,29.62,WNW,293,21.5,25.7,81,0.00,,,0.00,WUHU216HW,2013-11-20 15:31:00,
2013-11-20 08:32:00,14.0,9.3,29.62,WNW,293,19.2,25.7,81,0.00,,,0.00,WUHU216HW,2013-11-20 15:32:00,
2013-11-20 08:34:00,13.9,9.4,29.62,WNW,293,26.6,26.6,82,0.00,,,0.00,WUHU216HW,2013-11-20 15:34:00,
2013-11-20 08:35:00,13.7,9.2,29.62,WNW,293,18.8,26.6,82,0.00,,,0.00,WUHU216HW,2013-11-20 15:35:00,
2013-11-20 08:36:00,13.7,9.5,29.62,WNW,293,26.6,26.6,83,0.00,,,0.00,WUHU216HW,2013-11-20 15:36:00,
2013-11-20 08:37:00,13.7,9.5,29.62,WNW,293,22.6,26.6,83,0.00,,,0.00,WUHU216HW,2013-11-20 15:37:00,
2013-11-20 08:39:00,13.7,9.5,29.62,NW,315,23.5,26.6,83,0.00,,,0.00,WUHU216HW,2013-11-20 15:39:00,
2013-11-20 08:40:00,13.7,9.5,29.62,NW,315,21.0,26.6,83,0.00,,,0.00,WUHU216HW,2013-11-20 15:40:00,
2013-11-20 08:42:00,13.7,9.5,29.62,WNW,293,30.2,30.2,83,0.00,,,0.00,WUHU216HW,2013-11-20 15:42:00,
2013-11-20 08:44:00,13.5,9.3,29.63,NW,315,21.5,30.2,83,0.00,,,0.00,WUHU216HW,2013-11-20 15:44:00,
2013-11-20 08:45:00,13.5,9.0,29.63,NW,315,27.3,30.2,82,0.00,,,0.00,WUHU216HW,2013-11-20 15:45:00,
2013-11-20 08:47:00,13.3,8.8,29.63,NW,315,23.7,30.2,82,0.00,,,0.00,WUHU216HW,2013-11-20 15:47:00,
2013-11-20 08:48:00,13.3,8.8,29.63,NW,315,25.1,30.2,82,0.00,,,0.00,WUHU216HW,2013-11-20 15:48:00,
2013-11-20 08:50:00,13.1,8.6,29.63,NW,315,23.9,30.2,82,0.00,,,0.00,WUHU216HW,2013-11-20 15:50:00,
2013-11-20 08:51:00,13.1,8.4,29.63,NW,315,23.5,30.2,81,0.00,,,0.00,WUHU216HW,2013-11-20 15:51:00,
2013-11-20 08:52:00,13.3,8.8,29.63,NW,315,19.9,28.0,82,0.00,,,0.00,WUHU216HW,2013-11-20 15:52:00,
2013-11-20 08:53:00,13.1,8.4,29.64,West,270,27.3,28.0,81,0.00,,,0.00,WUHU216HW,2013-11-20 15:53:00,
2013-11-20 08:55:00,12.6,7.8,29.64,NW,315,20.1,27.7,81,0.00,,,0.00,WUHU216HW,2013-11-20 15:55:00,
2013-11-20 08:56:00,12.6,7.8,29.64,NW,315,21.7,27.7,81,0.00,,,0.00,WUHU216HW,2013-11-20 15:56:00,
2013-11-20 08:57:00,12.6,7.8,29.64,NW,315,22.4,27.7,81,0.00,,,0.00,WUHU216HW,2013-11-20 15:57:00,
2013-11-20 08:58:00,12.6,7.8,29.64,WNW,293,19.7,27.7,81,0.00,,,0.00,WUHU216HW,2013-11-20 15:58:00,
2013-11-20 09:01:00,12.4,7.4,29.65,NW,315,31.3,31.3,80,0.00,,,0.00,WUHU216HW,2013-11-20 16:01:00,
2013-11-20 09:03:00,12.4,7.4,29.65,NW,315,21.3,31.3,80,0.00,,,0.00,WUHU216HW,2013-11-20 16:03:00,
2013-11-20 09:04:00,12.4,7.7,29.65,NW,315,17.0,31.3,81,0.00,,,0.00,WUHU216HW,2013-11-20 16:04:00,
2013-11-20 09:06:00,12.4,7.7,29.65,NW,315,21.9,31.3,81,0.00,,,0.00,WUHU216HW,2013-11-20 16:06:00,
2013-11-20 09:08:00,12.2,6.9,29.65,WNW,293,24.4,31.3,79,0.00,,,0.00,WUHU216HW,2013-11-20 16:08:00,
2013-11-20 09:09:00,12.2,6.9,29.65,WNW,293,20.8,31.3,79,0.00,,,0.00,WUHU216HW,2013-11-20 16:09:00,
2013-11-20 09:11:00,12.2,6.9,29.65,WNW,293,24.4,30.9,79,0.00,,,0.00,WUHU216HW,2013-11-20 16:11:00,
2013-11-20 09:13:00,12.1,6.8,29.65,WNW,293,31.5,32.0,79,0.00,,,0.00,WUHU216HW,2013-11-20 16:13:00,
2013-11-20 09:15:00,12.1,6.8,29.66,NW,315,26.6,32.0,79,0.00,,,0.00,WUHU216HW,2013-11-20 16:15:00,
2013-11-20 09:16:00,12.1,6.8,29.66,WNW,293,24.4,32.0,79,0.00,,,0.00,WUHU216HW,2013-11-20 16:16:00,
2013-11-20 09:17:00,12.1,6.8,29.66,NW,315,23.3,32.0,79,0.00,,,0.00,WUHU216HW,2013-11-20 16:17:00,
2013-11-20 09:18:00,12.1,6.5,29.66,NW,315,28.6,32.0,78,0.00,,,0.00,WUHU216HW,2013-11-20 16:18:00,
2013-11-20 09:20:00,11.9,5.9,29.66,NW,315,26.2,32.0,77,0.00,,,0.00,WUHU216HW,2013-11-20 16:20:00,
2013-11-20 09:21:00,11.9,5.9,29.66,NW,315,28.9,32.0,77,0.00,,,0.00,WUHU216HW,2013-11-20 16:21:00,
2013-11-20 09:22:00,11.9,5.9,29.66,NW,315,28.9,32.0,77,0.00,,,0.00,WUHU216HW,2013-11-20 16:22:00,
2013-11-20 09:23:00,11.9,5.9,29.66,NW,315,26.6,32.2,77,0.00,,,0.00,WUHU216HW,2013-11-20 16:23:00,
2013-11-20 09:25:00,11.7,6.1,29.66,NNW,338,28.9,32.2,78,0.00,,,0.00,WUHU216HW,2013-11-20 16:25:00,
2013-11-20 09:27:00,11.5,6.0,29.66,NW,315,30.0,32.4,78,0.00,,,0.00,WUHU216HW,2013-11-20 16:27:00,
2013-11-20 09:28:00,11.5,6.0,29.66,WNW,293,33.6,33.8,78,0.00,,,0.00,WUHU216HW,2013-11-20 16:28:00,
2013-11-20 09:29:00,11.3,5.8,29.66,NNW,338,30.2,33.8,78,0.00,,,0.00,WUHU216HW,2013-11-20 16:29:00,
2013-11-20 09:30:00,11.3,5.8,29.66,NW,315,28.2,35.3,78,0.00,,,0.00,WUHU216HW,2013-11-20 16:30:00,
2013-11-20 09:32:00,11.2,5.9,29.67,NW,315,26.6,35.3,79,0.00,,,0.00,WUHU216HW,2013-11-20 16:32:00,
2013-11-20 09:33:00,11.2,5.9,29.67,NW,315,26.6,35.3,79,0.00,,,0.00,WUHU216HW,2013-11-20 16:33:00,
2013-11-20 09:34:00,11.2,5.6,29.67,NW,315,29.5,35.3,78,0.00,,,0.00,WUHU216HW,2013-11-20 16:34:00,
2013-11-20 09:35:00,11.2,5.6,29.67,NW,315,26.4,35.3,78,0.00,,,0.00,WUHU216HW,2013-11-20 16:35:00,
2013-11-20 09:37:00,11.2,5.6,29.67,NNW,338,28.6,35.3,78,0.00,,,0.00,WUHU216HW,2013-11-20 16:37:00,
2013-11-20 09:38:00,11.0,5.4,29.67,NW,315,28.9,35.3,78,0.00,,,0.00,WUHU216HW,2013-11-20 16:38:00,
2013-11-20 09:39:00,11.0,5.4,29.67,WNW,293,28.9,35.3,78,0.00,,,0.00,WUHU216HW,2013-11-20 16:39:00,
2013-11-20 09:41:00,11.0,5.4,29.67,WNW,293,25.1,34.0,78,0.00,,,0.00,WUHU216HW,2013-11-20 16:41:00,
2013-11-20 09:42:00,11.0,5.4,29.68,NW,315,32.7,34.0,78,0.00,,,0.00,WUHU216HW,2013-11-20 16:42:00,
2013-11-20 09:43:00,11.0,5.4,29.68,WNW,293,28.9,34.0,78,0.00,,,0.00,WUHU216HW,2013-11-20 16:43:00,
2013-11-20 09:44:00,11.0,5.4,29.68,WNW,293,28.9,34.0,78,0.00,,,0.00,WUHU216HW,2013-11-20 16:44:00,
2013-11-20 09:45:00,10.8,5.2,29.68,NW,315,27.7,34.0,78,0.00,,,0.00,WUHU216HW,2013-11-20 16:45:00,
2013-11-20 09:46:00,11.0,5.4,29.69,NW,315,21.0,34.0,78,0.00,,,0.00,WUHU216HW,2013-11-20 16:46:00,
2013-11-20 09:48:00,11.2,5.6,29.69,WNW,293,27.3,32.7,78,0.00,,,0.00,WUHU216HW,2013-11-20 16:48:00,
2013-11-20 09:49:00,11.2,5.6,29.69,NW,315,24.4,32.7,78,0.00,,,0.00,WUHU216HW,2013-11-20 16:49:00,
2013-11-20 09:50:00,11.3,5.8,29.69,WNW,293,20.4,32.7,78,0.00,,,0.00,WUHU216HW,2013-11-20 16:50:00,
2013-11-20 09:51:00,11.3,5.8,29.70,WNW,293,20.4,32.7,78,0.00,,,0.00,WUHU216HW,2013-11-20 16:51:00,
2013-11-20 09:53:00,11.3,5.8,29.70,NW,315,31.1,31.1,78,0.00,,,0.00,WUHU216HW,2013-11-20 16:53:00,
2013-11-20 09:54:00,11.3,5.8,29.70,NW,315,23.5,31.1,78,0.00,,,0.00,WUHU216HW,2013-11-20 16:54:00,
2013-11-20 09:55:00,11.3,5.4,29.71,NW,315,23.7,31.1,77,0.00,,,0.00,WUHU216HW,2013-11-20 16:55:00,
2013-11-20 09:56:00,11.2,5.2,29.71,NW,315,22.8,31.1,77,0.00,,,0.00,WUHU216HW,2013-11-20 16:56:00,
2013-11-20 09:58:00,11.2,5.6,29.71,WNW,293,23.5,31.1,78,0.00,,,0.00,WUHU216HW,2013-11-20 16:58:00,
2013-11-20 09:59:00,11.2,5.6,29.71,NW,315,20.1,31.1,78,0.00,,,0.00,WUHU216HW,2013-11-20 16:59:00,
2013-11-20 10:00:00,11.2,5.6,29.72,NW,315,17.9,31.1,78,0.00,,,0.00,WUHU216HW,2013-11-20 17:00:00,
2013-11-20 10:02:00,11.3,5.8,29.72,WNW,293,15.7,31.1,78,0.00,,,0.00,WUHU216HW,2013-11-20 17:02:00,
2013-11-20 10:03:00,11.2,5.6,29.72,NNW,338,22.4,28.0,78,0.00,,,0.00,WUHU216HW,2013-11-20 17:03:00,
2013-11-20 10:04:00,11.2,5.2,29.72,NW,315,17.9,28.0,77,0.00,,,0.00,WUHU216HW,2013-11-20 17:04:00,
2013-11-20 10:06:00,11.0,5.0,29.72,NNW,338,18.1,26.6,77,0.00,,,0.00,WUHU216HW,2013-11-20 17:06:00,
2013-11-20 10:08:00,10.8,5.2,29.72,NW,315,20.8,26.6,78,0.00,,,0.00,WUHU216HW,2013-11-20 17:08:00,
2013-11-20 10:09:00,10.8,4.9,29.72,NW,315,18.3,26.6,77,0.00,,,0.00,WUHU216HW,2013-11-20 17:09:00,
2013-11-20 10:11:00,10.6,4.7,29.72,NNW,338,21.5,26.6,77,0.00,,,0.00,WUHU216HW,2013-11-20 17:11:00,
2013-11-20 10:14:00,10.6,4.7,29.73,North,0,18.1,26.6,77,0.00,,,0.00,WUHU216HW,2013-11-20 17:14:00,
2013-11-20 10:17:00,10.8,4.9,29.73,NW,315,22.6,25.9,77,0.00,,,0.00,WUHU216HW,2013-11-20 17:17:00,
2013-11-20 10:19:00,10.8,5.2,29.73,WNW,293,12.5,25.9,78,0.00,,,0.00,WUHU216HW,2013-11-20 17:19:00,
2013-11-20 10:20:00,10.8,5.2,29.73,NNW,338,16.3,25.9,78,0.00,,,0.00,WUHU216HW,2013-11-20 17:20:00,
2013-11-20 10:23:00,10.8,4.9,29.73,NNW,338,16.3,23.7,77,0.00,,,0.00,WUHU216HW,2013-11-20 17:23:00,
2013-11-20 10:24:00,10.8,4.6,29.73,NW,315,22.1,25.7,76,0.00,,,0.00,WUHU216HW,2013-11-20 17:24:00,
2013-11-20 10:25:00,10.8,4.6,29.73,NW,315,22.1,25.7,76,0.00,,,0.00,WUHU216HW,2013-11-20 17:25:00,
2013-11-20 10:28:00,10.6,4.4,29.74,NW,315,14.3,25.7,76,0.00,,,0.00,WUHU216HW,2013-11-20 17:28:00,
2013-11-20 10:29:00,10.6,4.4,29.74,NNW,338,20.8,25.7,76,0.00,,,0.00,WUHU216HW,2013-11-20 17:29:00,
2013-11-20 10:30:00,10.6,4.4,29.74,NNW,338,20.8,25.7,76,0.00,,,0.00,WUHU216HW,2013-11-20 17:30:00,
2013-11-20 10:33:00,10.6,4.1,29.74,NW,315,22.6,25.7,75,0.00,,,0.00,WUHU216HW,2013-11-20 17:33:00,
2013-11-20 10:35:00,10.6,4.4,29.73,NW,315,22.8,25.3,76,0.00,,,0.00,WUHU216HW,2013-11-20 17:35:00,
2013-11-20 10:36:00,10.6,4.4,29.74,NW,315,18.3,25.3,76,0.00,,,0.00,WUHU216HW,2013-11-20 17:36:00,
2013-11-20 10:38:00,10.4,4.2,29.74,NW,315,18.3,26.2,76,0.00,,,0.00,WUHU216HW,2013-11-20 17:38:00,
2013-11-20 10:40:00,10.4,4.2,29.74,NW,315,27.3,27.3,76,0.00,,,0.00,WUHU216HW,2013-11-20 17:40:00,
2013-11-20 10:41:00,10.4,4.2,29.75,NNW,338,17.2,28.4,76,0.00,,,0.00,WUHU216HW,2013-11-20 17:41:00,
2013-11-20 10:44:00,10.4,4.2,29.75,NNW,338,14.5,28.4,76,0.00,,,0.00,WUHU216HW,2013-11-20 17:44:00,
2013-11-20 10:45:00,10.4,4.2,29.75,NNW,338,21.5,28.4,76,0.00,,,0.00,WUHU216HW,2013-11-20 17:45:00,
2013-11-20 10:46:00,10.4,4.5,29.75,NW,315,17.7,28.4,77,0.00,,,0.00,WUHU216HW,2013-11-20 17:46:00,
2013-11-20 10:49:00,10.4,4.5,29.75,NNW,338,15.0,28.4,77,0.00,,,0.00,WUHU216HW,2013-11-20 17:49:00,
2013-11-20 10:50:00,10.4,4.5,29.75,NNW,338,15.7,28.4,77,0.00,,,0.00,WUHU216HW,2013-11-20 17:50:00,
2013-11-20 10:51:00,10.4,4.0,29.75,NNW,338,21.5,26.2,75,0.00,,,0.00,WUHU216HW,2013-11-20 17:51:00,
2013-11-20 10:52:00,10.4,4.0,29.75,NW,315,21.9,26.2,75,0.00,,,0.00,WUHU216HW,2013-11-20 17:52:00,
2013-11-20 10:54:00,10.6,4.4,29.75,NNW,338,23.3,26.2,76,0.00,,,0.00,WUHU216HW,2013-11-20 17:54:00,
2013-11-20 10:55:00,10.6,4.4,29.76,NNW,338,17.2,26.2,76,0.00,,,0.00,WUHU216HW,2013-11-20 17:55:00,
2013-11-20 10:56:00,10.6,4.4,29.76,NNW,338,16.3,26.2,76,0.00,,,0.00,WUHU216HW,2013-11-20 17:56:00,
2013-11-20 10:57:00,10.8,4.9,29.76,NNW,338,16.6,26.2,77,0.00,,,0.00,WUHU216HW,2013-11-20 17:57:00,
2013-11-20 11:00:00,10.8,4.3,29.75,NNW,338,17.2,26.2,75,0.00,,,0.00,WUHU216HW,2013-11-20 18:00:00,
2013-11-20 11:01:00,10.6,4.4,29.75,NW,315,22.6,24.8,76,0.00,,,0.00,WUHU216HW,2013-11-20 18:01:00,
2013-11-20 11:03:00,10.6,4.4,29.75,NW,315,23.0,24.6,76,0.00,,,0.00,WUHU216HW,2013-11-20 18:03:00,
2013-11-20 11:05:00,10.4,4.0,29.75,NW,315,25.5,27.3,75,0.00,,,0.00,WUHU216HW,2013-11-20 18:05:00,
2013-11-20 11:06:00,10.4,4.0,29.75,WNW,293,24.4,27.7,75,0.00,,,0.00,WUHU216HW,2013-11-20 18:06:00,
2013-11-20 11:08:00,10.6,4.1,29.75,WNW,293,23.0,27.7,75,0.00,,,0.00,WUHU216HW,2013-11-20 18:08:00,
2013-11-20 11:10:00,10.8,4.3,29.75,NW,315,21.7,27.7,75,0.00,,,0.00,WUHU216HW,2013-11-20 18:10:00,
2013-11-20 11:11:00,11.0,4.5,29.76,NW,315,26.8,27.7,75,0.00,,,0.00,WUHU216HW,2013-11-20 18:11:00,
2013-11-20 11:13:00,11.0,4.2,29.76,NW,315,22.1,29.3,74,0.00,,,0.00,WUHU216HW,2013-11-20 18:13:00,
2013-11-20 11:15:00,11.2,4.7,29.76,WNW,293,19.9,29.3,75,0.00,,,0.00,WUHU216HW,2013-11-20 18:15:00,
2013-11-20 11:16:00,11.2,4.4,29.76,NW,315,24.4,29.3,74,0.00,,,0.00,WUHU216HW,2013-11-20 18:16:00,
2013-11-20 11:17:00,11.2,4.4,29.76,West,270,17.4,29.3,74,0.00,,,0.00,WUHU216HW,2013-11-20 18:17:00,
2013-11-20 11:18:00,11.2,4.4,29.76,NW,315,24.4,29.3,74,0.00,,,0.00,WUHU216HW,2013-11-20 18:18:00,
2013-11-20 11:20:00,11.3,4.3,29.76,NW,315,28.9,29.3,73,0.00,,,0.00,WUHU216HW,2013-11-20 18:20:00,
2013-11-20 11:21:00,11.2,4.4,29.76,NW,315,21.7,29.3,74,0.00,,,0.00,WUHU216HW,2013-11-20 18:21:00,
2013-11-20 11:22:00,11.2,4.4,29.76,NW,315,21.7,28.9,74,0.00,,,0.00,WUHU216HW,2013-11-20 18:22:00,
2013-11-20 11:23:00,11.2,4.4,29.76,WNW,293,26.8,28.9,74,0.00,,,0.00,WUHU216HW,2013-11-20 18:23:00,
2013-11-20 11:25:00,11.2,4.2,29.77,NW,315,25.9,28.9,73,0.00,,,0.00,WUHU216HW,2013-11-20 18:25:00,
2013-11-20 11:26:00,11.2,4.2,29.77,NW,315,18.8,28.9,73,0.00,,,0.00,WUHU216HW,2013-11-20 18:26:00,
2013-11-20 11:27:00,11.2,4.2,29.77,NW,315,18.8,28.9,73,0.00,,,0.00,WUHU216HW,2013-11-20 18:27:00,
2013-11-20 11:28:00,11.2,4.2,29.77,NW,315,25.7,28.9,73,0.00,,,0.00,WUHU216HW,2013-11-20 18:28:00,
2013-11-20 11:30:00,10.8,3.8,29.77,NW,315,25.9,28.9,73,0.00,,,0.00,WUHU216HW,2013-11-20 18:30:00,
2013-11-20 11:32:00,10.8,3.8,29.77,West,270,22.4,28.9,73,0.00,,,0.00,WUHU216HW,2013-11-20 18:32:00,
2013-11-20 11:33:00,11.0,4.2,29.77,NW,315,25.5,27.5,74,0.00,,,0.00,WUHU216HW,2013-11-20 18:33:00,
2013-11-20 11:35:00,10.8,4.1,29.77,NW,315,24.8,27.1,74,0.00,,,0.00,WUHU216HW,2013-11-20 18:35:00,
2013-11-20 11:37:00,10.8,3.8,29.77,WNW,293,20.1,27.1,73,0.00,,,0.00,WUHU216HW,2013-11-20 18:37:00,
2013-11-20 11:38:00,10.8,4.1,29.77,NW,315,20.4,27.1,74,0.00,,,0.00,WUHU216HW,2013-11-20 18:38:00,
2013-11-20 11:39:00,10.8,4.1,29.77,NW,315,17.9,27.1,74,0.00,,,0.00,WUHU216HW,2013-11-20 18:39:00,
2013-11-20 11:41:00,10.8,3.8,29.77,WNW,293,23.3,26.6,73,0.00,,,0.00,WUHU216HW,2013-11-20 18:41:00,
2013-11-20 11:42:00,11.0,4.2,29.77,NNW,338,20.8,26.6,74,0.00,,,0.00,WUHU216HW,2013-11-20 18:42:00,
2013-11-20 11:43:00,11.0,4.2,29.77,NW,315,17.4,26.6,74,0.00,,,0.00,WUHU216HW,2013-11-20 18:43:00,
2013-11-20 11:44:00,10.8,4.1,29.77,WNW,293,20.6,26.6,74,0.00,,,0.00,WUHU216HW,2013-11-20 18:44:00,
2013-11-20 11:46:00,10.8,3.8,29.78,NW,315,20.8,26.6,73,0.00,,,0.00,WUHU216HW,2013-11-20 18:46:00,
2013-11-20 11:47:00,11.0,4.2,29.77,WNW,293,19.0,23.9,74,0.00,,,0.00,WUHU216HW,2013-11-20 18:47:00,
2013-11-20 11:48:00,11.0,4.0,29.78,NW,315,22.4,23.9,73,0.00,,,0.00,WUHU216HW,2013-11-20 18:48:00,
2013-11-20 11:49:00,11.0,4.0,29.78,NW,315,23.0,23.9,73,0.00,,,0.00,WUHU216HW,2013-11-20 18:49:00,
2013-11-20 11:51:00,10.6,3.6,29.78,WNW,293,14.5,23.9,73,0.00,,,0.00,WUHU216HW,2013-11-20 18:51:00,
2013-11-20 11:52:00,10.6,3.9,29.78,NW,315,18.6,23.9,74,0.00,,,0.00,WUHU216HW,2013-11-20 18:52:00,
2013-11-20 11:53:00,10.4,3.4,29.78,WNW,293,25.3,25.3,73,0.00,,,0.00,WUHU216HW,2013-11-20 18:53:00,
2013-11-20 11:54:00,10.4,3.4,29.78,NW,315,21.5,25.3,73,0.00,,,0.00,WUHU216HW,2013-11-20 18:54:00,
2013-11-20 11:55:00,10.4,3.4,29.78,NW,315,19.2,25.3,73,0.00,,,0.00,WUHU216HW,2013-11-20 18:55:00,
2013-11-20 11:56:00,10.4,3.4,29.78,WNW,293,19.2,25.3,73,0.00,,,0.00,WUHU216HW,2013-11-20 18:56:00,
2013-11-20 11:57:00,10.4,3.4,29.78,NW,315,22.8,25.3,73,0.00,,,0.00,WUHU216HW,2013-11-20 18:57:00,
2013-11-20 11:59:00,10.4,3.4,29.78,WNW,293,15.9,25.3,73,0.00,,,0.00,WUHU216HW,2013-11-20 18:59:00,
2013-11-20 12:00:00,10.4,3.4,29.78,NW,315,20.8,25.3,73,0.00,,,0.00,WUHU216HW,2013-11-20 19:00:00,
2013-11-20 12:01:00,10.4,3.7,29.78,WNW,293,26.6,28.9,74,0.00,,,0.00,WUHU216HW,2013-11-20 19:01:00,
2013-11-20 12:03:00,10.3,3.3,29.79,WNW,293,17.7,28.9,73,0.00,,,0.00,WUHU216HW,2013-11-20 19:03:00,
2013-11-20 12:04:00,10.3,3.3,29.78,West,270,23.3,28.9,73,0.00,,,0.00,WUHU216HW,2013-11-20 19:04:00,
2013-11-20 12:05:00,10.1,3.1,29.78,NW,315,23.0,28.9,73,0.00,,,0.00,WUHU216HW,2013-11-20 19:05:00,
2013-11-20 12:06:00,10.3,3.3,29.78,WNW,293,20.4,28.9,73,0.00,,,0.00,WUHU216HW,2013-11-20 19:06:00,
2013-11-20 12:08:00,10.4,3.4,29.78,WNW,293,17.0,28.9,73,0.00,,,0.00,WUHU216HW,2013-11-20 19:08:00,
2013-11-20 12:09:00,10.4,3.7,29.78,NW,315,23.0,28.9,74,0.00,,,0.00,WUHU216HW,2013-11-20 19:09:00,
2013-11-20 12:10:00,10.4,3.7,29.79,NW,315,18.3,28.9,74,0.00,,,0.00,WUHU216HW,2013-11-20 19:10:00,
2013-11-20 12:11:00,10.4,3.7,29.79,NW,315,25.9,26.6,74,0.00,,,0.00,WUHU216HW,2013-11-20 19:11:00,
2013-11-20 12:13:00,10.1,3.3,29.79,NW,315,23.3,27.5,74,0.00,,,0.00,WUHU216HW,2013-11-20 19:13:00,
2013-11-20 12:15:00,10.1,3.1,29.79,NW,315,24.6,27.5,73,0.00,,,0.00,WUHU216HW,2013-11-20 19:15:00,
2013-11-20 12:16:00,9.9,2.9,29.79,WNW,293,17.9,27.5,73,0.00,,,0.00,WUHU216HW,2013-11-20 19:16:00,
2013-11-20 12:18:00,9.9,3.2,29.79,WNW,293,22.8,27.5,74,0.00,,,0.00,WUHU216HW,2013-11-20 19:18:00,
2013-11-20 12:20:00,9.7,2.7,29.79,NW,315,23.9,27.5,73,0.00,,,0.00,WUHU216HW,2013-11-20 19:20:00,
2013-11-20 12:21:00,9.7,2.7,29.79,NW,315,23.0,27.5,73,0.00,,,0.00,WUHU216HW,2013-11-20 19:21:00,
2013-11-20 12:22:00,9.7,3.1,29.79,WNW,293,19.0,26.8,74,0.00,,,0.00,WUHU216HW,2013-11-20 19:22:00,
2013-11-20 12:24:00,9.7,3.1,29.80,NW,315,17.2,26.8,74,0.00,,,0.00,WUHU216HW,2013-11-20 19:24:00,
2013-11-20 12:25:00,9.7,2.7,29.79,NW,315,23.7,26.8,73,0.00,,,0.00,WUHU216HW,2013-11-20 19:25:00,
2013-11-20 12:26:00,9.7,3.1,29.80,NW,315,25.1,26.4,74,0.00,,,0.00,WUHU216HW,2013-11-20 19:26:00,
2013-11-20 12:27:00,9.9,3.2,29.80,WNW,293,17.7,26.4,74,0.00,,,0.00,WUHU216HW,2013-11-20 19:27:00,
2013-11-20 12:28:00,9.9,3.2,29.80,NNW,338,20.6,26.4,74,0.00,,,0.00,WUHU216HW,2013-11-20 19:28:00,
2013-11-20 12:29:00,9.9,2.9,29.80,WNW,293,24.4,26.4,73,0.00,,,0.00,WUHU216HW,2013-11-20 19:29:00,
2013-11-20 12:30:00,10.1,3.1,29.80,NW,315,17.2,26.4,73,0.00,,,0.00,WUHU216HW,2013-11-20 19:30:00,
2013-11-20 12:31:00,9.9,2.9,29.80,NW,315,23.0,25.1,73,0.00,,,0.00,WUHU216HW,2013-11-20 19:31:00,
2013-11-20 12:32:00,9.9,2.9,29.80,NW,315,23.0,25.1,73,0.00,,,0.00,WUHU216HW,2013-11-20 19:32:00,
2013-11-20 12:33:00,9.7,2.7,29.80,NNW,338,21.5,25.1,73,0.00,,,0.00,WUHU216HW,2013-11-20 19:33:00,
2013-11-20 12:34:00,9.7,2.7,29.80,NW,315,22.4,25.1,73,0.00,,,0.00,WUHU216HW,2013-11-20 19:34:00,
2013-11-20 12:35:00,9.7,2.7,29.80,NNW,338,18.6,25.1,73,0.00,,,0.00,WUHU216HW,2013-11-20 19:35:00,
2013-11-20 12:36:00,9.7,2.7,29.80,NNW,338,25.1,25.1,73,0.00,,,0.00,WUHU216HW,2013-11-20 19:36:00,
2013-11-20 12:37:00,9.7,2.7,29.80,NNW,338,25.1,25.1,73,0.00,,,0.00,WUHU216HW,2013-11-20 19:37:00,
2013-11-20 12:38:00,9.5,2.6,29.81,NW,315,16.3,25.3,73,0.00,,,0.00,WUHU216HW,2013-11-20 19:38:00,
2013-11-20 12:40:00,9.5,2.9,29.81,WNW,293,25.7,25.7,74,0.00,,,0.00,WUHU216HW,2013-11-20 19:40:00,
2013-11-20 12:42:00,9.5,2.6,29.81,NW,315,20.8,25.7,73,0.00,,,0.00,WUHU216HW,2013-11-20 19:42:00,
2013-11-20 12:43:00,9.5,2.9,29.81,WNW,293,18.8,25.7,74,0.00,,,0.00,WUHU216HW,2013-11-20 19:43:00,
2013-11-20 12:45:00,9.5,2.6,29.81,NW,315,24.4,25.7,73,0.00,,,0.00,WUHU216HW,2013-11-20 19:45:00,
2013-11-20 12:47:00,9.4,2.2,29.81,NNW,338,21.5,25.7,72,0.00,,,0.00,WUHU216HW,2013-11-20 19:47:00,
2013-11-20 12:48:00,9.4,2.2,29.81,NW,315,23.5,25.7,72,0.00,,,0.00,WUHU216HW,2013-11-20 19:48:00,
2013-11-20 12:49:00,9.4,2.2,29.81,NW,315,20.4,25.7,72,0.00,,,0.00,WUHU216HW,2013-11-20 19:49:00,
2013-11-20 12:50:00,9.4,2.2,29.82,NW,315,15.7,25.7,72,0.00,,,0.00,WUHU216HW,2013-11-20 19:50:00,
2013-11-20 12:51:00,9.2,2.0,29.82,NW,315,22.4,24.4,72,0.00,,,0.00,WUHU216HW,2013-11-20 19:51:00,
2013-11-20 12:52:00,9.2,2.3,29.82,NW,315,21.7,24.4,73,0.00,,,0.00,WUHU216HW,2013-11-20 19:52:00,
2013-11-20 12:53:00,9.4,2.4,29.82,NW,315,23.0,26.4,73,0.00,,,0.00,WUHU216HW,2013-11-20 19:53:00,
2013-11-20 12:54:00,9.2,2.5,29.82,NNW,338,20.8,26.4,74,0.00,,,0.00,WUHU216HW,2013-11-20 19:54:00,
2013-11-20 12:55:00,9.2,2.5,29.82,NNW,338,20.8,26.4,74,0.00,,,0.00,WUHU216HW,2013-11-20 19:55:00,
2013-11-20 12:56:00,9.4,2.4,29.82,NW,315,23.3,26.4,73,0.00,,,0.00,WUHU216HW,2013-11-20 19:56:00,
2013-11-20 12:57:00,9.2,2.3,29.82,North,0,25.9,26.4,73,0.00,,,0.00,WUHU216HW,2013-11-20 19:57:00,
2013-11-20 12:58:00,9.2,2.3,29.82,NW,315,25.9,26.4,73,0.00,,,0.00,WUHU216HW,2013-11-20 19:58:00,
2013-11-20 12:59:00,9.2,2.3,29.82,NW,315,23.5,26.4,73,0.00,,,0.00,WUHU216HW,2013-11-20 19:59:00,
2013-11-20 13:00:00,9.0,2.1,29.82,WNW,293,24.6,27.5,73,0.00,,,0.00,WUHU216HW,2013-11-20 20:00:00,
2013-11-20 13:01:00,9.0,2.1,29.82,NW,315,24.4,27.5,73,0.00,,,0.00,WUHU216HW,2013-11-20 20:01:00,
2013-11-20 13:02:00,9.0,1.8,29.82,NW,315,24.2,27.5,72,0.00,,,0.00,WUHU216HW,2013-11-20 20:02:00,
2013-11-20 13:03:00,9.0,2.1,29.82,NW,315,20.1,27.5,73,0.00,,,0.00,WUHU216HW,2013-11-20 20:03:00,
2013-11-20 13:04:00,9.0,2.1,29.82,NW,315,26.6,27.5,73,0.00,,,0.00,WUHU216HW,2013-11-20 20:04:00,
2013-11-20 13:05:00,9.0,2.1,29.82,NW,315,25.3,27.5,73,0.00,,,0.00,WUHU216HW,2013-11-20 20:05:00,
2013-11-20 13:06:00,9.0,2.1,29.82,NW,315,27.3,27.5,73,0.00,,,0.00,WUHU216HW,2013-11-20 20:06:00,
2013-11-20 13:07:00,9.0,2.1,29.82,NNW,338,18.6,27.5,73,0.00,,,0.00,WUHU216HW,2013-11-20 20:07:00,
2013-11-20 13:08:00,9.0,1.8,29.82,NW,315,17.4,27.5,72,0.00,,,0.00,WUHU216HW,2013-11-20 20:08:00,
2013-11-20 13:09:00,9.0,1.8,29.82,NNW,338,24.8,27.3,72,0.00,,,0.00,WUHU216HW,2013-11-20 20:09:00,
2013-11-20 13:10:00,9.0,1.8,29.82,NW,315,19.7,27.3,72,0.00,,,0.00,WUHU216HW,2013-11-20 20:10:00,
2013-11-20 13:11:00,9.0,1.8,29.82,NNW,338,26.8,27.3,72,0.00,,,0.00,WUHU216HW,2013-11-20 20:11:00,
2013-11-20 13:12:00,9.0,1.8,29.82,WNW,293,20.8,27.3,72,0.00,,,0.00,WUHU216HW,2013-11-20 20:12:00,
2013-11-20 13:14:00,9.0,1.8,29.82,NW,315,23.3,27.3,72,0.00,,,0.00,WUHU216HW,2013-11-20 20:14:00,
2013-11-20 13:15:00,9.0,1.8,29.82,NW,315,24.8,27.3,72,0.00,,,0.00,WUHU216HW,2013-11-20 20:15:00,
2013-11-20 13:16:00,9.0,1.8,29.82,NW,315,22.4,27.3,72,0.00,,,0.00,WUHU216HW,2013-11-20 20:16:00,
2013-11-20 13:17:00,9.0,2.1,29.82,NW,315,26.4,27.3,73,0.00,,,0.00,WUHU216HW,2013-11-20 20:17:00,
2013-11-20 13:20:00,9.0,2.1,29.83,NW,315,23.5,26.8,73,0.00,,,0.00,WUHU216HW,2013-11-20 20:20:00,
2013-11-20 13:21:00,9.0,2.1,29.83,NW,315,25.1,26.8,73,0.00,,,0.00,WUHU216HW,2013-11-20 20:21:00,
2013-11-20 13:22:00,9.2,2.0,29.83,NW,315,21.5,26.8,72,0.00,,,0.00,WUHU216HW,2013-11-20 20:22:00,
2013-11-20 13:25:00,9.4,1.8,29.83,NW,315,23.7,26.4,71,0.00,,,0.00,WUHU216HW,2013-11-20 20:25:00,
2013-11-20 13:26:00,9.4,1.8,29.83,NW,315,25.3,26.4,71,0.00,,,0.00,WUHU216HW,2013-11-20 20:26:00,
2013-11-20 13:27:00,9.4,1.8,29.83,NW,315,20.4,26.4,71,0.00,,,0.00,WUHU216HW,2013-11-20 20:27:00,
2013-11-20 13:30:00,9.5,2.0,29.83,WNW,293,26.6,28.0,71,0.00,,,0.00,WUHU216HW,2013-11-20 20:30:00,
2013-11-20 13:31:00,9.5,2.0,29.83,WNW,293,25.9,28.0,71,0.00,,,0.00,WUHU216HW,2013-11-20 20:31:00,
2013-11-20 13:32:00,9.5,2.0,29.83,WNW,293,26.6,28.0,71,0.00,,,0.00,WUHU216HW,2013-11-20 20:32:00,
2013-11-20 13:33:00,9.5,2.0,29.83,NW,315,22.4,28.0,71,0.00,,,0.00,WUHU216HW,2013-11-20 20:33:00,
2013-11-20 13:36:00,9.5,2.0,29.84,NW,315,19.2,28.0,71,0.00,,,0.00,WUHU216HW,2013-11-20 20:36:00,
2013-11-20 13:37:00,9.4,1.5,29.84,NW,315,21.5,28.0,70,0.00,,,0.00,WUHU216HW,2013-11-20 20:37:00,
2013-11-20 13:38:00,9.4,1.5,29.84,WNW,293,21.0,28.0,70,0.00,,,0.00,WUHU216HW,2013-11-20 20:38:00,
2013-11-20 13:41:00,9.4,1.5,29.84,WNW,293,22.1,26.6,70,0.00,,,0.00,WUHU216HW,2013-11-20 20:41:00,
2013-11-20 13:42:00,9.4,1.5,29.84,WNW,293,25.9,28.9,70,0.00,,,0.00,WUHU216HW,2013-11-20 20:42:00,
2013-11-20 13:43:00,9.4,1.5,29.84,WNW,293,24.8,28.9,70,0.00,,,0.00,WUHU216HW,2013-11-20 20:43:00,
2013-11-20 13:44:00,9.4,1.5,29.84,WNW,293,20.1,28.9,70,0.00,,,0.00,WUHU216HW,2013-11-20 20:44:00,
2013-11-20 13:46:00,9.4,1.5,29.84,West,270,23.0,28.9,70,0.00,,,0.00,WUHU216HW,2013-11-20 20:46:00,
2013-11-20 13:47:00,9.4,1.5,29.84,WNW,293,26.6,28.9,70,0.00,,,0.00,WUHU216HW,2013-11-20 20:47:00,
2013-11-20 13:48:00,9.2,1.4,29.84,NW,315,23.7,28.9,70,0.00,,,0.00,WUHU216HW,2013-11-20 20:48:00,
2013-11-20 13:49:00,9.2,1.4,29.84,NW,315,27.3,28.9,70,0.00,,,0.00,WUHU216HW,2013-11-20 20:49:00,
2013-11-20 13:51:00,9.0,1.3,29.85,NW,315,23.7,28.9,70,0.00,,,0.00,WUHU216HW,2013-11-20 20:51:00,
2013-11-20 13:52:00,9.0,1.3,29.85,NW,315,24.4,28.9,70,0.00,,,0.00,WUHU216HW,2013-11-20 20:52:00,
2013-11-20 13:53:00,9.0,1.3,29.85,WNW,293,21.5,27.3,70,0.00,,,0.00,WUHU216HW,2013-11-20 20:53:00,
2013-11-20 13:54:00,9.0,1.3,29.85,WNW,293,17.0,27.3,70,0.00,,,0.00,WUHU216HW,2013-11-20 20:54:00,
2013-11-20 13:56:00,9.2,1.4,29.85,NW,315,22.8,27.3,70,0.00,,,0.00,WUHU216HW,2013-11-20 20:56:00,
2013-11-20 13:57:00,9.2,1.4,29.85,NW,315,23.0,27.3,70,0.00,,,0.00,WUHU216HW,2013-11-20 20:57:00,
2013-11-20 13:58:00,9.2,1.4,29.85,NW,315,17.9,27.3,70,0.00,,,0.00,WUHU216HW,2013-11-20 20:58:00,
2013-11-20 14:00:00,9.4,1.5,29.85,NW,315,23.5,25.7,70,0.00,,,0.00,WUHU216HW,2013-11-20 21:00:00,
2013-11-20 14:02:00,9.2,1.4,29.85,NW,315,21.5,25.7,70,0.00,,,0.00,WUHU216HW,2013-11-20 21:02:00,
2013-11-20 14:03:00,9.2,1.4,29.85,NW,315,25.9,25.9,70,0.00,,,0.00,WUHU216HW,2013-11-20 21:03:00,
2013-11-20 14:04:00,9.2,1.4,29.85,NW,315,24.4,25.9,70,0.00,,,0.00,WUHU216HW,2013-11-20 21:04:00,
2013-11-20 14:05:00,9.2,1.4,29.85,WNW,293,19.5,25.9,70,0.00,,,0.00,WUHU216HW,2013-11-20 21:05:00,
2013-11-20 14:07:00,9.2,1.4,29.85,NW,315,24.8,25.9,70,0.00,,,0.00,WUHU216HW,2013-11-20 21:07:00,
2013-11-20 14:08:00,9.0,1.3,29.85,NW,315,22.1,25.9,70,0.00,,,0.00,WUHU216HW,2013-11-20 21:08:00,
2013-11-20 14:09:00,9.0,1.3,29.85,NW,315,28.2,28.2,70,0.00,,,0.00,WUHU216HW,2013-11-20 21:09:00,
2013-11-20 14:10:00,9.0,1.3,29.85,NW,315,25.1,28.2,70,0.00,,,0.00,WUHU216HW,2013-11-20 21:10:00,
2013-11-20 14:12:00,9.0,1.3,29.85,WNW,293,23.0,28.2,70,0.00,,,0.00,WUHU216HW,2013-11-20 21:12:00,
2013-11-20 14:13:00,9.0,1.3,29.85,WNW,293,22.4,28.2,70,0.00,,,0.00,WUHU216HW,2013-11-20 21:13:00,
2013-11-20 14:14:00,9.0,1.3,29.85,WNW,293,18.6,28.2,70,0.00,,,0.00,WUHU216HW,2013-11-20 21:14:00,
2013-11-20 14:16:00,9.0,1.3,29.85,WNW,293,17.9,28.2,70,0.00,,,0.00,WUHU216HW,2013-11-20 21:16:00,
2013-11-20 14:17:00,9.0,1.3,29.85,NW,315,21.3,28.2,70,0.00,,,0.00,WUHU216HW,2013-11-20 21:17:00,
2013-11-20 14:18:00,9.0,1.3,29.85,WNW,293,21.0,28.2,70,0.00,,,0.00,WUHU216HW,2013-11-20 21:18:00,
2013-11-20 14:19:00,9.0,1.3,29.85,NW,315,16.3,28.2,70,0.00,,,0.00,WUHU216HW,2013-11-20 21:19:00,
2013-11-20 14:20:00,9.0,1.3,29.85,NW,315,19.2,25.3,70,0.00,,,0.00,WUHU216HW,2013-11-20 21:20:00,
2013-11-20 14:21:00,9.0,1.3,29.85,NW,315,19.2,25.3,70,0.00,,,0.00,WUHU216HW,2013-11-20 21:21:00,
2013-11-20 14:22:00,9.0,1.3,29.85,NW,315,23.7,23.7,70,0.00,,,0.00,WUHU216HW,2013-11-20 21:22:00,
2013-11-20 14:23:00,9.0,0.9,29.85,WNW,293,21.5,27.3,69,0.00,,,0.00,WUHU216HW,2013-11-20 21:23:00,
2013-11-20 14:24:00,9.0,0.9,29.85,WNW,293,24.8,27.3,69,0.00,,,0.00,WUHU216HW,2013-11-20 21:24:00,
2013-11-20 14:25:00,8.8,0.7,29.85,NW,315,19.2,27.3,69,0.00,,,0.00,WUHU216HW,2013-11-20 21:25:00,
2013-11-20 14:26:00,9.0,1.3,29.85,NW,315,21.7,27.3,70,0.00,,,0.00,WUHU216HW,2013-11-20 21:26:00,
2013-11-20 14:27:00,8.8,1.1,29.86,NW,315,22.4,27.3,70,0.00,,,0.00,WUHU216HW,2013-11-20 21:27:00,
2013-11-20 14:28:00,8.8,1.1,29.85,NW,315,20.6,27.3,70,0.00,,,0.00,WUHU216HW,2013-11-20 21:28:00,
2013-11-20 14:29:00,8.8,1.1,29.85,NW,315,20.6,27.3,70,0.00,,,0.00,WUHU216HW,2013-11-20 21:29:00,
2013-11-20 14:30:00,8.8,1.1,29.85,NW,315,22.4,27.3,70,0.00,,,0.00,WUHU216HW,2013-11-20 21:30:00,
2013-11-20 14:32:00,8.8,1.1,29.86,NW,315,26.4,27.3,70,0.00,,,0.00,WUHU216HW,2013-11-20 21:32:00,
2013-11-20 14:33:00,8.8,1.1,29.85,WNW,293,18.1,27.3,70,0.00,,,0.00,WUHU216HW,2013-11-20 21:33:00,
2013-11-20 14:34:00,8.8,1.1,29.85,WNW,293,15.4,26.4,70,0.00,,,0.00,WUHU216HW,2013-11-20 21:34:00,
2013-11-20 14:35:00,8.8,1.1,29.86,NW,315,16.8,26.4,70,0.00,,,0.00,WUHU216HW,2013-11-20 21:35:00,
2013-11-20 14:36:00,9.0,0.9,29.86,NW,315,17.0,26.4,69,0.00,,,0.00,WUHU216HW,2013-11-20 21:36:00,
2013-11-20 14:37:00,8.8,1.1,29.86,NW,315,18.1,26.4,70,0.00,,,0.00,WUHU216HW,2013-11-20 21:37:00,
2013-11-20 14:38:00,8.8,0.7,29.86,NW,315,20.1,26.4,69,0.00,,,0.00,WUHU216HW,2013-11-20 21:38:00,
2013-11-20 14:39:00,8.8,0.7,29.86,NW,315,23.9,26.4,69,0.00,,,0.00,WUHU216HW,2013-11-20 21:39:00,
2013-11-20 14:40:00,8.8,0.7,29.86,WNW,293,17.7,26.4,69,0.00,,,0.00,WUHU216HW,2013-11-20 21:40:00,
2013-11-20 14:41:00,8.8,0.7,29.86,NW,315,23.0,26.4,69,0.00,,,0.00,WUHU216HW,2013-11-20 21:41:00,
2013-11-20 14:42:00,8.6,0.5,29.86,NNW,338,18.1,25.3,69,0.00,,,0.00,WUHU216HW,2013-11-20 21:42:00,
2013-11-20 14:43:00,8.6,0.9,29.86,NW,315,19.5,25.3,70,0.00,,,0.00,WUHU216HW,2013-11-20 21:43:00,
2013-11-20 14:44:00,8.6,0.9,29.86,NNW,338,20.1,25.3,70,0.00,,,0.00,WUHU216HW,2013-11-20 21:44:00,
2013-11-20 14:45:00,8.6,0.9,29.86,NW,315,16.6,25.3,70,0.00,,,0.00,WUHU216HW,2013-11-20 21:45:00,
2013-11-20 14:46:00,8.8,1.1,29.86,NW,315,21.9,25.3,70,0.00,,,0.00,WUHU216HW,2013-11-20 21:46:00,
2013-11-20 14:47:00,8.8,1.1,29.86,West,270,20.8,25.3,70,0.00,,,0.00,WUHU216HW,2013-11-20 21:47:00,
2013-11-20 14:49:00,8.8,0.7,29.87,NW,315,23.0,25.3,69,0.00,,,0.00,WUHU216HW,2013-11-20 21:49:00,
2013-11-20 14:50:00,8.8,1.1,29.87,NW,315,17.4,23.9,70,0.00,,,0.00,WUHU216HW,2013-11-20 21:50:00,
2013-11-20 14:52:00,9.0,1.3,29.87,NW,315,19.7,23.7,70,0.00,,,0.00,WUHU216HW,2013-11-20 21:52:00,
2013-11-20 14:54:00,8.8,1.1,29.87,WNW,293,21.7,23.7,70,0.00,,,0.00,WUHU216HW,2013-11-20 21:54:00,
2013-11-20 14:55:00,8.8,1.1,29.87,NW,315,20.1,23.7,70,0.00,,,0.00,WUHU216HW,2013-11-20 21:55:00,
2013-11-20 14:57:00,8.8,1.1,29.87,WNW,293,22.4,23.7,70,0.00,,,0.00,WUHU216HW,2013-11-20 21:57:00,
2013-11-20 14:59:00,8.6,0.9,29.87,NW,315,22.8,23.5,70,0.00,,,0.00,WUHU216HW,2013-11-20 21:59:00,
2013-11-20 15:00:00,8.6,0.9,29.87,NW,315,20.1,23.5,70,0.00,,,0.00,WUHU216HW,2013-11-20 22:00:00,
2013-11-20 15:01:00,8.5,0.7,29.87,NNW,338,20.8,23.5,70,0.00,,,0.00,WUHU216HW,2013-11-20 22:01:00,
2013-11-20 15:02:00,8.5,0.7,29.88,NW,315,20.8,24.8,70,0.00,,,0.00,WUHU216HW,2013-11-20 22:02:00,
2013-11-20 15:04:00,8.3,0.5,29.88,NW,315,24.4,25.7,70,0.00,,,0.00,WUHU216HW,2013-11-20 22:04:00,
2013-11-20 15:05:00,8.3,0.5,29.88,NW,315,23.0,25.7,70,0.00,,,0.00,WUHU216HW,2013-11-20 22:05:00,
2013-11-20 15:06:00,8.3,0.5,29.88,WNW,293,25.3,25.7,70,0.00,,,0.00,WUHU216HW,2013-11-20 22:06:00,
2013-11-20 15:07:00,8.3,0.5,29.88,WNW,293,25.3,25.7,70,0.00,,,0.00,WUHU216HW,2013-11-20 22:07:00,
2013-11-20 15:10:00,8.3,0.5,29.88,WNW,293,22.4,26.2,70,0.00,,,0.00,WUHU216HW,2013-11-20 22:10:00,
2013-11-20 15:11:00,8.5,0.7,29.88,NNW,338,21.5,26.2,70,0.00,,,0.00,WUHU216HW,2013-11-20 22:11:00,
2013-11-20 15:12:00,8.5,0.7,29.88,NW,315,23.7,26.2,70,0.00,,,0.00,WUHU216HW,2013-11-20 22:12:00,
2013-11-20 15:13:00,8.5,0.7,29.88,WNW,293,21.0,26.2,70,0.00,,,0.00,WUHU216HW,2013-11-20 22:13:00,
2013-11-20 15:15:00,8.6,0.9,29.88,NW,315,20.8,26.2,70,0.00,,,0.00,WUHU216HW,2013-11-20 22:15:00,
2013-11-20 15:16:00,8.6,0.9,29.89,NW,315,23.7,26.2,70,0.00,,,0.00,WUHU216HW,2013-11-20 22:16:00,
2013-11-20 15:17:00,8.6,0.5,29.89,NW,315,21.5,26.2,69,0.00,,,0.00,WUHU216HW,2013-11-20 22:17:00,
2013-11-20 15:18:00,8.6,0.5,29.89,NW,315,24.2,26.2,69,0.00,,,0.00,WUHU216HW,2013-11-20 22:18:00,
2013-11-20 15:20:00,8.5,0.4,29.89,NW,315,22.1,26.2,69,0.00,,,0.00,WUHU216HW,2013-11-20 22:20:00,
2013-11-20 15:21:00,8.5,0.4,29.89,NNW,338,17.0,26.2,69,0.00,,,0.00,WUHU216HW,2013-11-20 22:21:00,
2013-11-20 15:22:00,8.5,0.4,29.89,NW,315,18.3,26.2,69,0.00,,,0.00,WUHU216HW,2013-11-20 22:22:00,
2013-11-20 15:23:00,8.5,0.4,29.89,NW,315,19.2,26.2,69,0.00,,,0.00,WUHU216HW,2013-11-20 22:23:00,
2013-11-20 15:24:00,8.5,0.4,29.89,NW,315,20.6,25.9,69,0.00,,,0.00,WUHU216HW,2013-11-20 22:24:00,
2013-11-20 15:25:00,8.5,0.4,29.89,NNW,338,22.6,24.4,69,0.00,,,0.00,WUHU216HW,2013-11-20 22:25:00,
2013-11-20 15:26:00,8.3,-0.2,29.89,NW,315,19.0,24.4,68,0.00,,,0.00,WUHU216HW,2013-11-20 22:26:00,
2013-11-20 15:27:00,8.3,0.2,29.89,NNW,338,20.8,24.4,69,0.00,,,0.00,WUHU216HW,2013-11-20 22:27:00,
2013-11-20 15:28:00,8.3,0.2,29.89,NW,315,14.8,24.4,69,0.00,,,0.00,WUHU216HW,2013-11-20 22:28:00,
2013-11-20 15:29:00,8.3,0.2,29.89,NW,315,18.8,24.4,69,0.00,,,0.00,WUHU216HW,2013-11-20 22:29:00,
2013-11-20 15:31:00,8.3,0.2,29.89,NW,315,21.9,24.4,69,0.00,,,0.00,WUHU216HW,2013-11-20 22:31:00,
2013-11-20 15:33:00,8.3,-0.2,29.89,NNW,338,22.8,24.4,68,0.00,,,0.00,WUHU216HW,2013-11-20 22:33:00,
2013-11-20 15:34:00,8.3,0.2,29.89,NNW,338,22.1,24.4,69,0.00,,,0.00,WUHU216HW,2013-11-20 22:34:00,
2013-11-20 15:36:00,8.3,0.2,29.89,NW,315,20.6,24.4,69,0.00,,,0.00,WUHU216HW,2013-11-20 22:36:00,
2013-11-20 15:37:00,8.3,0.2,29.89,NW,315,21.9,22.8,69,0.00,,,0.00,WUHU216HW,2013-11-20 22:37:00,
2013-11-20 15:38:00,8.3,0.2,29.90,NW,315,24.4,24.4,69,0.00,,,0.00,WUHU216HW,2013-11-20 22:38:00,
2013-11-20 15:39:00,8.5,0.0,29.90,WNW,293,21.7,24.4,68,0.00,,,0.00,WUHU216HW,2013-11-20 22:39:00,
2013-11-20 15:41:00,8.6,0.2,29.90,NW,315,17.7,24.4,68,0.00,,,0.00,WUHU216HW,2013-11-20 22:41:00,
2013-11-20 15:42:00,8.6,0.2,29.90,NW,315,23.3,24.4,68,0.00,,,0.00,WUHU216HW,2013-11-20 22:42:00,
2013-11-20 15:43:00,8.6,0.2,29.90,NW,315,18.8,24.4,68,0.00,,,0.00,WUHU216HW,2013-11-20 22:43:00,
2013-11-20 15:44:00,8.6,0.2,29.90,NW,315,22.4,24.4,68,0.00,,,0.00,WUHU216HW,2013-11-20 22:44:00,
2013-11-20 15:46:00,8.8,0.0,29.90,NW,315,19.2,24.6,67,0.00,,,0.00,WUHU216HW,2013-11-20 22:46:00,
2013-11-20 15:47:00,8.8,0.0,29.90,NW,315,20.8,24.6,67,0.00,,,0.00,WUHU216HW,2013-11-20 22:47:00,
2013-11-20 15:49:00,9.0,-0.1,29.90,NW,315,24.6,24.6,66,0.00,,,0.00,WUHU216HW,2013-11-20 22:49:00,
2013-11-20 15:50:00,9.0,-0.1,29.90,NW,315,22.4,24.6,66,0.00,,,0.00,WUHU216HW,2013-11-20 22:50:00,
2013-11-20 15:51:00,8.8,-0.3,29.90,NW,315,23.3,24.6,66,0.00,,,0.00,WUHU216HW,2013-11-20 22:51:00,
2013-11-20 15:52:00,8.8,-0.3,29.90,NW,315,23.0,24.6,66,0.00,,,0.00,WUHU216HW,2013-11-20 22:52:00,
2013-11-20 15:54:00,8.8,-0.3,29.90,NW,315,20.8,24.6,66,0.00,,,0.00,WUHU216HW,2013-11-20 22:54:00,
2013-11-20 15:55:00,8.8,-0.3,29.91,NW,315,17.2,24.6,66,0.00,,,0.00,WUHU216HW,2013-11-20 22:55:00,
2013-11-20 15:56:00,8.6,-0.4,29.91,NW,315,19.5,24.6,66,0.00,,,0.00,WUHU216HW,2013-11-20 22:56:00,
2013-11-20 15:58:00,8.8,-0.3,29.91,NW,315,19.0,24.6,66,0.00,,,0.00,WUHU216HW,2013-11-20 22:58:00,
2013-11-20 15:59:00,8.8,-0.3,29.91,WNW,293,18.6,23.7,66,0.00,,,0.00,WUHU216HW,2013-11-20 22:59:00,
2013-11-20 16:00:00,8.8,-0.3,29.91,NW,315,17.2,23.7,66,0.00,,,0.00,WUHU216HW,2013-11-20 23:00:00,
2013-11-20 16:02:00,9.0,0.2,29.91,NW,315,13.4,23.7,67,0.00,,,0.00,WUHU216HW,2013-11-20 23:02:00,
2013-11-20 16:03:00,8.8,0.0,29.91,WNW,293,12.3,23.7,67,0.00,,,0.00,WUHU216HW,2013-11-20 23:03:00,
2013-11-20 16:04:00,9.0,0.2,29.91,WNW,293,17.2,21.0,67,0.00,,,0.00,WUHU216HW,2013-11-20 23:04:00,
2013-11-20 16:05:00,9.0,-0.1,29.91,NW,315,14.8,19.7,66,0.00,,,0.00,WUHU216HW,2013-11-20 23:05:00,
2013-11-20 16:07:00,9.0,-0.1,29.91,NW,315,11.4,19.5,66,0.00,,,0.00,WUHU216HW,2013-11-20 23:07:00,
2013-11-20 16:08:00,8.8,0.0,29.91,NW,315,13.6,19.5,67,0.00,,,0.00,WUHU216HW,2013-11-20 23:08:00,
2013-11-20 16:10:00,8.6,-0.1,29.91,NW,315,17.2,19.5,67,0.00,,,0.00,WUHU216HW,2013-11-20 23:10:00,
2013-11-20 16:11:00,8.5,-0.3,29.92,West,270,12.3,19.5,67,0.00,,,0.00,WUHU216HW,2013-11-20 23:11:00,
2013-11-20 16:12:00,8.5,0.0,29.92,WNW,293,10.5,18.3,68,0.00,,,0.00,WUHU216HW,2013-11-20 23:12:00,
2013-11-20 16:13:00,8.3,-0.2,29.92,WNW,293,10.3,18.3,68,0.00,,,0.00,WUHU216HW,2013-11-20 23:13:00,
2013-11-20 16:15:00,8.3,-0.2,29.92,WNW,293,11.6,17.2,68,0.00,,,0.00,WUHU216HW,2013-11-20 23:15:00,
2013-11-20 16:16:00,8.3,-0.2,29.92,West,270,11.6,17.2,68,0.00,,,0.00,WUHU216HW,2013-11-20 23:16:00,
2013-11-20 16:17:00,8.3,-0.2,29.92,WNW,293,13.0,17.2,68,0.00,,,0.00,WUHU216HW,2013-11-20 23:17:00,
2013-11-20 16:18:00,8.3,-0.2,29.92,NW,315,13.4,17.2,68,0.00,,,0.00,WUHU216HW,2013-11-20 23:18:00,
2013-11-20 16:20:00,8.5,0.4,29.92,WNW,293,11.4,15.0,69,0.00,,,0.00,WUHU216HW,2013-11-20 23:20:00,
2013-11-20 16:21:00,8.5,0.4,29.92,WNW,293,11.4,13.4,69,0.00,,,0.00,WUHU216HW,2013-11-20 23:21:00,
2013-11-20 16:22:00,8.5,0.4,29.92,NW,315,12.1,13.4,69,0.00,,,0.00,WUHU216HW,2013-11-20 23:22:00,
2013-11-20 16:23:00,8.6,0.5,29.92,WNW,293,14.3,14.3,69,0.00,,,0.00,WUHU216HW,2013-11-20 23:23:00,
2013-11-20 16:25:00,8.8,0.7,29.92,NW,315,11.4,14.3,69,0.00,,,0.00,WUHU216HW,2013-11-20 23:25:00,
2013-11-20 16:26:00,8.8,0.7,29.92,NW,315,13.0,14.3,69,0.00,,,0.00,WUHU216HW,2013-11-20 23:26:00,
2013-11-20 16:27:00,9.0,0.9,29.92,NW,315,14.1,16.3,69,0.00,,,0.00,WUHU216HW,2013-11-20 23:27:00,
2013-11-20 16:29:00,9.2,1.1,29.92,NW,315,12.1,16.3,69,0.00,,,0.00,WUHU216HW,2013-11-20 23:29:00,
2013-11-20 16:30:00,9.2,0.7,29.93,WNW,293,11.6,16.3,68,0.00,,,0.00,WUHU216HW,2013-11-20 23:30:00,
2013-11-20 16:31:00,9.4,0.9,29.93,WNW,293,15.7,16.3,68,0.00,,,0.00,WUHU216HW,2013-11-20 23:31:00,
2013-11-20 16:32:00,9.4,0.9,29.93,WNW,293,11.9,16.3,68,0.00,,,0.00,WUHU216HW,2013-11-20 23:32:00,
2013-11-20 16:33:00,9.2,0.7,29.93,NW,315,11.0,16.3,68,0.00,,,0.00,WUHU216HW,2013-11-20 23:33:00,
2013-11-20 16:35:00,9.0,0.5,29.93,NNW,338,13.0,16.3,68,0.00,,,0.00,WUHU216HW,2013-11-20 23:35:00,
2013-11-20 16:36:00,9.0,0.5,29.93,NW,315,13.6,16.3,68,0.00,,,0.00,WUHU216HW,2013-11-20 23:36:00,
2013-11-20 16:38:00,8.8,0.4,29.93,WNW,293,12.5,16.3,68,0.00,,,0.00,WUHU216HW,2013-11-20 23:38:00,
2013-11-20 16:39:00,8.6,0.2,29.93,NW,315,13.0,16.3,68,0.00,,,0.00,WUHU216HW,2013-11-20 23:39:00,
2013-11-20 16:41:00,8.3,-0.2,29.93,WNW,293,12.3,16.3,68,0.00,,,0.00,WUHU216HW,2013-11-20 23:41:00,
2013-11-20 16:42:00,8.3,-0.2,29.93,West,270,13.4,16.3,68,0.00,,,0.00,WUHU216HW,2013-11-20 23:42:00,
2013-11-20 16:43:00,8.1,0.0,29.93,NW,315,13.4,16.3,69,0.00,,,0.00,WUHU216HW,2013-11-20 23:43:00,
2013-11-20 16:44:00,7.9,-0.2,29.93,WNW,293,10.7,16.3,69,0.00,,,0.00,WUHU216HW,2013-11-20 23:44:00,
2013-11-20 16:46:00,7.6,-0.5,29.93,NW,315,14.3,16.3,69,0.00,,,0.00,WUHU216HW,2013-11-20 23:46:00,
2013-11-20 16:47:00,7.6,-0.5,29.93,WNW,293,11.9,16.3,69,0.00,,,0.00,WUHU216HW,2013-11-20 23:47:00,
2013-11-20 16:48:00,7.4,-0.4,29.93,NW,315,11.9,16.3,70,0.00,,,0.00,WUHU216HW,2013-11-20 23:48:00,
2013-11-20 16:49:00,7.4,-0.4,29.93,NW,315,12.3,16.3,70,0.00,,,0.00,WUHU216HW,2013-11-20 23:49:00,
2013-11-20 16:52:00,7.2,-0.5,29.93,WNW,293,13.2,14.8,70,0.00,,,0.00,WUHU216HW,2013-11-20 23:52:00,
2013-11-20 16:53:00,7.2,-0.5,29.93,NW,315,11.6,14.8,70,0.00,,,0.00,WUHU216HW,2013-11-20 23:53:00,
2013-11-20 16:54:00,7.4,-0.4,29.94,NW,315,16.8,16.8,70,0.00,,,0.00,WUHU216HW,2013-11-20 23:54:00,
2013-11-20 16:57:00,7.4,-0.4,29.94,WNW,293,20.1,20.1,70,0.00,,,0.00,WUHU216HW,2013-11-20 23:57:00,
2013-11-20 16:58:00,7.2,-0.5,29.94,NW,315,15.4,20.1,70,0.00,,,0.00,WUHU216HW,2013-11-20 23:58:00,
2013-11-20 16:59:00,7.0,-0.7,29.94,NW,315,15.0,20.1,70,0.00,,,0.00,WUHU216HW,2013-11-20 23:59:00,
2013-11-20 17:02:00,6.8,-0.6,29.94,NW,315,13.6,20.1,71,0.00,,,0.00,WUHU216HW,2013-11-21 00:02:00,
2013-11-20 17:03:00,6.8,-0.6,29.94,WNW,293,12.1,20.1,71,0.00,,,0.00,WUHU216HW,2013-11-21 00:03:00,
2013-11-20 17:04:00,6.7,-0.8,29.95,West,270,13.4,20.1,71,0.00,,,0.00,WUHU216HW,2013-11-21 00:04:00,
2013-11-20 17:07:00,6.5,-1.0,29.95,WNW,293,16.3,17.9,71,0.00,,,0.00,WUHU216HW,2013-11-21 00:07:00,
2013-11-20 17:08:00,6.5,-1.0,29.95,WNW,293,16.6,17.9,71,0.00,,,0.00,WUHU216HW,2013-11-21 00:08:00,
2013-11-20 17:09:00,6.5,-1.0,29.95,WNW,293,14.3,18.6,71,0.00,,,0.00,WUHU216HW,2013-11-21 00:09:00,
2013-11-20 17:12:00,6.3,-1.2,29.95,WNW,293,15.7,18.6,71,0.00,,,0.00,WUHU216HW,2013-11-21 00:12:00,
2013-11-20 17:13:00,6.1,-1.3,29.95,WNW,293,15.7,18.6,71,0.00,,,0.00,WUHU216HW,2013-11-21 00:13:00,
2013-11-20 17:14:00,6.3,-1.2,29.95,NW,315,13.9,18.6,71,0.00,,,0.00,WUHU216HW,2013-11-21 00:14:00,
2013-11-20 17:17:00,6.1,-1.1,29.95,NW,315,10.5,18.6,72,0.00,,,0.00,WUHU216HW,2013-11-21 00:17:00,
2013-11-20 17:18:00,6.1,-1.1,29.95,WNW,293,13.4,18.6,72,0.00,,,0.00,WUHU216HW,2013-11-21 00:18:00,
2013-11-20 17:19:00,6.1,-1.1,29.95,WNW,293,12.8,18.6,72,0.00,,,0.00,WUHU216HW,2013-11-21 00:19:00,
2013-11-20 17:20:00,6.1,-1.1,29.95,NW,315,11.9,16.3,72,0.00,,,0.00,WUHU216HW,2013-11-21 00:20:00,
2013-11-20 17:23:00,6.1,-1.1,29.95,NW,315,16.6,16.6,72,0.00,,,0.00,WUHU216HW,2013-11-21 00:23:00,
2013-11-20 17:24:00,6.1,-1.1,29.95,NW,315,15.7,16.6,72,0.00,,,0.00,WUHU216HW,2013-11-21 00:24:00,
2013-11-20 17:25:00,6.1,-0.7,29.95,NW,315,13.6,16.6,73,0.00,,,0.00,WUHU216HW,2013-11-21 00:25:00,
2013-11-20 17:26:00,5.9,-1.3,29.95,NW,315,15.9,16.6,72,0.00,,,0.00,WUHU216HW,2013-11-21 00:26:00,
2013-11-20 17:28:00,5.9,-1.3,29.95,WNW,293,17.2,17.7,72,0.00,,,0.00,WUHU216HW,2013-11-21 00:28:00,
2013-11-20 17:29:00,5.9,-1.3,29.96,NW,315,14.5,17.7,72,0.00,,,0.00,WUHU216HW,2013-11-21 00:29:00,
2013-11-20 17:30:00,5.9,-1.3,29.96,WNW,293,13.4,17.7,72,0.00,,,0.00,WUHU216HW,2013-11-21 00:30:00,
2013-11-20 17:31:00,5.9,-1.3,29.96,WNW,293,12.8,17.7,72,0.00,,,0.00,WUHU216HW,2013-11-21 00:31:00,
2013-11-20 17:33:00,5.9,-1.3,29.96,WNW,293,13.0,17.7,72,0.00,,,0.00,WUHU216HW,2013-11-21 00:33:00,
2013-11-20 17:34:00,5.9,-1.3,29.96,NW,315,13.4,17.7,72,0.00,,,0.00,WUHU216HW,2013-11-21 00:34:00,
2013-11-20 17:35:00,5.9,-1.3,29.96,WNW,293,12.1,17.7,72,0.00,,,0.00,WUHU216HW,2013-11-21 00:35:00,
2013-11-20 17:36:00,5.8,-1.4,29.96,NW,315,13.4,17.7,72,0.00,,,0.00,WUHU216HW,2013-11-21 00:36:00,
2013-11-20 17:38:00,5.8,-1.4,29.96,NW,315,12.8,17.2,72,0.00,,,0.00,WUHU216HW,2013-11-21 00:38:00,
2013-11-20 17:40:00,5.8,-1.4,29.96,NW,315,12.1,16.8,72,0.00,,,0.00,WUHU216HW,2013-11-21 00:40:00,
2013-11-20 17:41:00,5.8,-1.4,29.96,NNW,338,10.1,16.8,72,0.00,,,0.00,WUHU216HW,2013-11-21 00:41:00,
2013-11-20 17:43:00,5.8,-1.4,29.97,NW,315,10.5,14.3,72,0.00,,,0.00,WUHU216HW,2013-11-21 00:43:00,
2013-11-20 17:45:00,5.8,-1.4,29.96,NW,315,11.4,14.3,72,0.00,,,0.00,WUHU216HW,2013-11-21 00:45:00,
2013-11-20 17:46:00,5.8,-1.1,29.97,WNW,293,10.5,14.3,73,0.00,,,0.00,WUHU216HW,2013-11-21 00:46:00,
2013-11-20 17:48:00,5.8,-1.1,29.97,WNW,293,10.5,14.3,73,0.00,,,0.00,WUHU216HW,2013-11-21 00:48:00,
2013-11-20 17:50:00,5.8,-1.1,29.96,NW,315,13.4,15.0,73,0.00,,,0.00,WUHU216HW,2013-11-21 00:50:00,
2013-11-20 17:51:00,5.8,-1.1,29.96,NW,315,13.4,15.0,73,0.00,,,0.00,WUHU216HW,2013-11-21 00:51:00,
2013-11-20 17:52:00,5.8,-1.1,29.96,West,270,11.9,15.0,73,0.00,,,0.00,WUHU216HW,2013-11-21 00:52:00,
2013-11-20 17:54:00,5.9,-1.3,29.97,NW,315,12.5,15.0,72,0.00,,,0.00,WUHU216HW,2013-11-21 00:54:00,
2013-11-20 17:56:00,5.9,-0.9,29.97,WNW,293,12.8,15.0,73,0.00,,,0.00,WUHU216HW,2013-11-21 00:56:00,
2013-11-20 17:57:00,5.9,-1.3,29.97,NW,315,11.4,15.0,72,0.00,,,0.00,WUHU216HW,2013-11-21 00:57:00,
2013-11-20 17:59:00,5.9,-1.3,29.97,WNW,293,14.8,15.0,72,0.00,,,0.00,WUHU216HW,2013-11-21 00:59:00,
2013-11-20 18:01:00,5.9,-1.3,29.97,WNW,293,13.4,15.0,72,0.00,,,0.00,WUHU216HW,2013-11-21 01:01:00,
2013-11-20 18:02:00,5.9,-1.3,29.97,WNW,293,12.5,14.8,72,0.00,,,0.00,WUHU216HW,2013-11-21 01:02:00,
2013-11-20 18:04:00,5.9,-1.3,29.97,WNW,293,12.3,14.8,72,0.00,,,0.00,WUHU216HW,2013-11-21 01:04:00,
2013-11-20 18:06:00,5.9,-1.3,29.97,WNW,293,14.1,14.8,72,0.00,,,0.00,WUHU216HW,2013-11-21 01:06:00,
2013-11-20 18:07:00,5.9,-1.3,29.97,NW,315,10.1,14.8,72,0.00,,,0.00,WUHU216HW,2013-11-21 01:07:00,
2013-11-20 18:09:00,5.9,-1.3,29.97,WNW,293,12.1,14.8,72,0.00,,,0.00,WUHU216HW,2013-11-21 01:09:00,
2013-11-20 18:11:00,5.9,-0.9,29.97,WNW,293,11.0,14.8,73,0.00,,,0.00,WUHU216HW,2013-11-21 01:11:00,
2013-11-20 18:12:00,5.9,-0.9,29.97,NW,315,13.4,14.1,73,0.00,,,0.00,WUHU216HW,2013-11-21 01:12:00,
2013-11-20 18:14:00,5.9,-0.9,29.97,NW,315,14.8,16.1,73,0.00,,,0.00,WUHU216HW,2013-11-21 01:14:00,
2013-11-20 18:16:00,5.9,-0.9,29.97,WNW,293,13.4,16.1,73,0.00,,,0.00,WUHU216HW,2013-11-21 01:16:00,
2013-11-20 18:17:00,5.9,-0.9,29.97,NW,315,13.0,16.1,73,0.00,,,0.00,WUHU216HW,2013-11-21 01:17:00,
2013-11-20 18:18:00,5.9,-0.9,29.97,NW,315,13.0,16.1,73,0.00,,,0.00,WUHU216HW,2013-11-21 01:18:00,
2013-11-20 18:19:00,5.9,-0.9,29.97,NW,315,12.8,16.1,73,0.00,,,0.00,WUHU216HW,2013-11-21 01:19:00,
2013-11-20 18:21:00,5.9,-0.9,29.97,WNW,293,13.2,16.1,73,0.00,,,0.00,WUHU216HW,2013-11-21 01:21:00,
2013-11-20 18:22:00,5.9,-0.9,29.97,NW,315,13.6,16.8,73,0.00,,,0.00,WUHU216HW,2013-11-21 01:22:00,
2013-11-20 18:23:00,5.9,-0.9,29.97,NW,315,15.4,16.8,73,0.00,,,0.00,WUHU216HW,2013-11-21 01:23:00,
2013-11-20 18:24:00,5.9,-1.3,29.97,WNW,293,11.4,16.8,72,0.00,,,0.00,WUHU216HW,2013-11-21 01:24:00,
2013-11-20 18:27:00,5.9,-0.9,29.97,NW,315,12.8,16.8,73,0.00,,,0.00,WUHU216HW,2013-11-21 01:27:00,
2013-11-20 18:28:00,5.8,-1.1,29.97,WNW,293,13.4,16.8,73,0.00,,,0.00,WUHU216HW,2013-11-21 01:28:00,
2013-11-20 18:29:00,5.8,-1.1,29.97,WNW,293,11.2,16.8,73,0.00,,,0.00,WUHU216HW,2013-11-21 01:29:00,
2013-11-20 18:32:00,5.8,-1.1,29.97,WNW,293,13.2,16.1,73,0.00,,,0.00,WUHU216HW,2013-11-21 01:32:00,
2013-11-20 18:33:00,5.8,-1.1,29.97,WNW,293,11.2,16.1,73,0.00,,,0.00,WUHU216HW,2013-11-21 01:33:00,
2013-11-20 18:35:00,5.8,-1.1,29.97,NW,315,11.4,15.0,73,0.00,,,0.00,WUHU216HW,2013-11-21 01:35:00,
2013-11-20 18:37:00,5.8,-1.1,29.97,WNW,293,12.5,15.0,73,0.00,,,0.00,WUHU216HW,2013-11-21 01:37:00,
2013-11-20 18:38:00,5.8,-1.1,29.97,NW,315,8.9,14.3,73,0.00,,,0.00,WUHU216HW,2013-11-21 01:38:00,
2013-11-20 18:39:00,5.8,-1.1,29.97,NW,315,8.9,14.3,73,0.00,,,0.00,WUHU216HW,2013-11-21 01:39:00,
2013-11-20 18:40:00,5.8,-1.1,29.97,West,270,12.1,14.3,73,0.00,,,0.00,WUHU216HW,2013-11-21 01:40:00,
2013-11-20 18:42:00,5.8,-1.1,29.97,WNW,293,9.4,14.3,73,0.00,,,0.00,WUHU216HW,2013-11-21 01:42:00,
2013-11-20 18:43:00,5.8,-1.1,29.97,WNW,293,12.1,13.9,73,0.00,,,0.00,WUHU216HW,2013-11-21 01:43:00,
2013-11-20 18:44:00,5.8,-1.1,29.97,WNW,293,13.4,13.9,73,0.00,,,0.00,WUHU216HW,2013-11-21 01:44:00,
2013-11-20 18:45:00,5.8,-1.1,29.97,WNW,293,12.1,15.0,73,0.00,,,0.00,WUHU216HW,2013-11-21 01:45:00,
2013-11-20 18:47:00,5.8,-1.1,29.97,WNW,293,13.6,16.1,73,0.00,,,0.00,WUHU216HW,2013-11-21 01:47:00,
2013-11-20 18:48:00,5.8,-1.1,29.97,NW,315,14.3,16.1,73,0.00,,,0.00,WUHU216HW,2013-11-21 01:48:00,
2013-11-20 18:49:00,5.9,-0.9,29.97,West,270,13.4,16.1,73,0.00,,,0.00,WUHU216HW,2013-11-21 01:49:00,
2013-11-20 18:51:00,5.9,-0.9,29.97,WNW,293,12.8,16.1,73,0.00,,,0.00,WUHU216HW,2013-11-21 01:51:00,
2013-11-20 18:52:00,5.9,-0.9,29.97,NW,315,8.9,16.1,73,0.00,,,0.00,WUHU216HW,2013-11-21 01:52:00,
2013-11-20 18:53:00,5.9,-0.9,29.98,WNW,293,10.1,16.1,73,0.00,,,0.00,WUHU216HW,2013-11-21 01:53:00,
2013-11-20 18:54:00,5.9,-0.9,29.98,WNW,293,10.5,16.1,73,0.00,,,0.00,WUHU216HW,2013-11-21 01:54:00,
2013-11-20 18:56:00,5.8,-1.1,29.98,WNW,293,13.0,16.1,73,0.00,,,0.00,WUHU216HW,2013-11-21 01:56:00,
2013-11-20 18:57:00,5.8,-0.8,29.98,NW,315,12.1,14.3,74,0.00,,,0.00,WUHU216HW,2013-11-21 01:57:00,
2013-11-20 18:58:00,5.8,-0.8,29.98,NW,315,12.5,14.3,74,0.00,,,0.00,WUHU216HW,2013-11-21 01:58:00,
2013-11-20 18:59:00,5.8,-0.8,29.98,WNW,293,10.3,14.3,74,0.00,,,0.00,WUHU216HW,2013-11-21 01:59:00,
2013-11-20 19:00:00,5.8,-0.8,29.98,WNW,293,12.1,14.3,74,0.00,,,0.00,WUHU216HW,2013-11-21 02:00:00,
2013-11-20 19:01:00,5.8,-1.1,29.98,NW,315,12.5,14.3,73,0.00,,,0.00,WUHU216HW,2013-11-21 02:01:00,
2013-11-20 19:02:00,5.8,-1.1,29.98,WNW,293,11.9,14.3,73,0.00,,,0.00,WUHU216HW,2013-11-21 02:02:00,
2013-11-20 19:03:00,5.8,-1.1,29.98,WNW,293,11.6,14.3,73,0.00,,,0.00,WUHU216HW,2013-11-21 02:03:00,
2013-11-20 19:05:00,5.8,-0.8,29.98,NW,315,13.6,14.3,74,0.00,,,0.00,WUHU216HW,2013-11-21 02:05:00,
2013-11-20 19:06:00,5.8,-0.8,29.98,NW,315,11.4,14.3,74,0.00,,,0.00,WUHU216HW,2013-11-21 02:06:00,
2013-11-20 19:07:00,5.8,-0.8,29.98,WNW,293,11.0,14.3,74,0.00,,,0.00,WUHU216HW,2013-11-21 02:07:00,
2013-11-20 19:08:00,5.8,-0.8,29.98,WNW,293,13.2,13.6,74,0.00,,,0.00,WUHU216HW,2013-11-21 02:08:00,
2013-11-20 19:10:00,5.8,-0.8,29.98,WNW,293,12.3,14.8,74,0.00,,,0.00,WUHU216HW,2013-11-21 02:10:00,
2013-11-20 19:11:00,5.6,-1.0,29.98,WNW,293,9.4,14.8,74,0.00,,,0.00,WUHU216HW,2013-11-21 02:11:00,
2013-11-20 19:12:00,5.6,-1.0,29.98,WNW,293,11.9,14.8,74,0.00,,,0.00,WUHU216HW,2013-11-21 02:12:00,
2013-11-20 19:13:00,5.8,-0.8,29.98,WNW,293,13.0,14.8,74,0.00,,,0.00,WUHU216HW,2013-11-21 02:13:00,
2013-11-20 19:16:00,5.8,-0.5,29.98,WNW,293,14.3,15.0,75,0.00,,,0.00,WUHU216HW,2013-11-21 02:16:00,
2013-11-20 19:17:00,5.8,-0.5,29.98,WNW,293,12.5,15.0,75,0.00,,,0.00,WUHU216HW,2013-11-21 02:17:00,
2013-11-20 19:18:00,5.8,-0.5,29.98,NW,315,10.3,15.0,75,0.00,,,0.00,WUHU216HW,2013-11-21 02:18:00,
2013-11-20 19:21:00,5.8,-0.5,29.98,WNW,293,11.4,15.0,75,0.00,,,0.00,WUHU216HW,2013-11-21 02:21:00,
2013-11-20 19:22:00,5.8,-0.5,29.98,WNW,293,10.1,15.0,75,0.00,,,0.00,WUHU216HW,2013-11-21 02:22:00,
2013-11-20 19:23:00,5.9,-0.4,29.98,WNW,293,13.2,15.0,75,0.00,,,0.00,WUHU216HW,2013-11-21 02:23:00,
2013-11-20 19:24:00,5.9,-0.4,29.98,NW,315,13.9,14.3,75,0.00,,,0.00,WUHU216HW,2013-11-21 02:24:00,
2013-11-20 19:26:00,6.1,-0.2,29.98,NW,315,12.1,14.3,75,0.00,,,0.00,WUHU216HW,2013-11-21 02:26:00,
2013-11-20 19:27:00,6.1,-0.2,29.98,WNW,293,10.5,13.9,75,0.00,,,0.00,WUHU216HW,2013-11-21 02:27:00,
2013-11-20 19:28:00,6.1,-0.2,29.98,WNW,293,10.5,13.9,75,0.00,,,0.00,WUHU216HW,2013-11-21 02:28:00,
2013-11-20 19:29:00,6.1,-0.2,29.98,WNW,293,11.6,13.9,75,0.00,,,0.00,WUHU216HW,2013-11-21 02:29:00,
2013-11-20 19:32:00,6.3,0.0,29.98,WNW,293,8.9,13.9,75,0.00,,,0.00,WUHU216HW,2013-11-21 02:32:00,
2013-11-20 19:33:00,6.3,0.0,29.98,WNW,293,11.0,13.9,75,0.00,,,0.00,WUHU216HW,2013-11-21 02:33:00,
2013-11-20 19:35:00,6.5,0.2,29.98,WNW,293,13.0,13.6,75,0.00,,,0.00,WUHU216HW,2013-11-21 02:35:00,
2013-11-20 19:37:00,6.5,-0.1,29.98,WNW,293,9.8,13.6,74,0.00,,,0.00,WUHU216HW,2013-11-21 02:37:00,
2013-11-20 19:38:00,6.7,0.1,29.98,NW,315,10.7,13.6,74,0.00,,,0.00,WUHU216HW,2013-11-21 02:38:00,
2013-11-20 19:40:00,6.7,0.1,29.98,NW,315,15.0,15.0,74,0.00,,,0.00,WUHU216HW,2013-11-21 02:40:00,
2013-11-20 19:42:00,6.7,0.1,29.98,WNW,293,12.1,15.0,74,0.00,,,0.00,WUHU216HW,2013-11-21 02:42:00,
2013-11-20 19:43:00,6.8,0.0,29.98,WNW,293,11.0,15.0,73,0.00,,,0.00,WUHU216HW,2013-11-21 02:43:00,
2013-11-20 19:45:00,6.8,0.0,29.98,NW,315,14.1,15.0,73,0.00,,,0.00,WUHU216HW,2013-11-21 02:45:00,
2013-11-20 19:48:00,6.8,0.0,29.98,NW,315,11.4,15.0,73,0.00,,,0.00,WUHU216HW,2013-11-21 02:48:00,
2013-11-20 19:51:00,6.8,0.0,29.98,NW,315,13.0,15.7,73,0.00,,,0.00,WUHU216HW,2013-11-21 02:51:00,
2013-11-20 19:53:00,6.8,0.0,29.98,NW,315,11.4,15.7,73,0.00,,,0.00,WUHU216HW,2013-11-21 02:53:00,
2013-11-20 19:56:00,6.8,0.0,29.99,NW,315,13.2,15.7,73,0.00,,,0.00,WUHU216HW,2013-11-21 02:56:00,
2013-11-20 19:58:00,6.8,0.0,29.99,WNW,293,10.3,15.7,73,0.00,,,0.00,WUHU216HW,2013-11-21 02:58:00,
2013-11-20 19:59:00,6.8,0.0,29.99,NNW,338,9.2,15.7,73,0.00,,,0.00,WUHU216HW,2013-11-21 02:59:00,
2013-11-20 20:00:00,6.8,0.0,29.99,NW,315,9.2,14.8,73,0.00,,,0.00,WUHU216HW,2013-11-21 03:00:00,
2013-11-20 20:02:00,6.8,0.0,30.00,NW,315,8.3,14.8,73,0.00,,,0.00,WUHU216HW,2013-11-21 03:02:00,
2013-11-20 20:03:00,6.8,0.0,30.00,NW,315,6.9,14.8,73,0.00,,,0.00,WUHU216HW,2013-11-21 03:03:00,
2013-11-20 20:04:00,6.8,0.0,30.00,NW,315,3.6,14.3,73,0.00,,,0.00,WUHU216HW,2013-11-21 03:04:00,
2013-11-20 20:05:00,6.7,-0.2,30.00,NW,315,3.8,14.3,73,0.00,,,0.00,WUHU216HW,2013-11-21 03:05:00,
2013-11-20 20:07:00,6.7,-0.2,30.00,WNW,293,5.8,13.0,73,0.00,,,0.00,WUHU216HW,2013-11-21 03:07:00,
2013-11-20 20:08:00,6.7,-0.2,30.00,West,270,9.2,11.6,73,0.00,,,0.00,WUHU216HW,2013-11-21 03:08:00,
2013-11-20 20:09:00,6.8,0.0,30.00,West,270,10.3,10.3,73,0.00,,,0.00,WUHU216HW,2013-11-21 03:09:00,
2013-11-20 20:11:00,6.8,0.3,30.00,WNW,293,8.5,11.0,74,0.00,,,0.00,WUHU216HW,2013-11-21 03:11:00,
2013-11-20 20:12:00,7.0,0.2,30.00,West,270,8.9,11.0,73,0.00,,,0.00,WUHU216HW,2013-11-21 03:12:00,
2013-11-20 20:13:00,7.2,0.4,30.00,West,270,10.5,11.4,73,0.00,,,0.00,WUHU216HW,2013-11-21 03:13:00,
2013-11-20 20:14:00,7.2,0.4,30.00,West,270,10.5,11.4,73,0.00,,,0.00,WUHU216HW,2013-11-21 03:14:00,
2013-11-20 20:16:00,7.6,0.7,30.00,WSW,248,8.5,11.4,73,0.00,,,0.00,WUHU216HW,2013-11-21 03:16:00,
2013-11-20 20:18:00,7.6,0.7,30.00,West,270,7.4,11.4,73,0.00,,,0.00,WUHU216HW,2013-11-21 03:18:00,
2013-11-20 20:19:00,7.7,0.5,30.00,West,270,5.8,11.4,72,0.00,,,0.00,WUHU216HW,2013-11-21 03:19:00,
2013-11-20 20:20:00,7.7,0.5,30.01,West,270,6.9,11.4,72,0.00,,,0.00,WUHU216HW,2013-11-21 03:20:00,
2013-11-20 20:21:00,7.6,0.4,30.01,WNW,293,5.1,11.4,72,0.00,,,0.00,WUHU216HW,2013-11-21 03:21:00,
2013-11-20 20:24:00,7.6,0.4,30.00,NNW,338,4.0,8.9,72,0.00,,,0.00,WUHU216HW,2013-11-21 03:24:00,
2013-11-20 20:25:00,7.4,0.2,30.01,NNW,338,7.4,8.9,72,0.00,,,0.00,WUHU216HW,2013-11-21 03:25:00,
2013-11-20 20:26:00,7.4,0.2,30.01,NNW,338,4.7,8.9,72,0.00,,,0.00,WUHU216HW,2013-11-21 03:26:00,
2013-11-20 20:29:00,7.0,0.2,30.00,NW,315,5.4,7.4,73,0.00,,,0.00,WUHU216HW,2013-11-21 03:29:00,
2013-11-20 20:30:00,7.0,0.2,30.00,NW,315,5.6,7.4,73,0.00,,,0.00,WUHU216HW,2013-11-21 03:30:00,
2013-11-20 20:31:00,7.0,0.2,30.00,WNW,293,4.9,7.4,73,0.00,,,0.00,WUHU216HW,2013-11-21 03:31:00,
2013-11-20 20:34:00,6.8,0.0,30.01,West,270,4.7,7.4,73,0.00,,,0.00,WUHU216HW,2013-11-21 03:34:00,
2013-11-20 20:35:00,6.8,0.0,30.01,WNW,293,5.4,7.4,73,0.00,,,0.00,WUHU216HW,2013-11-21 03:35:00,
2013-11-20 20:36:00,6.8,0.0,30.01,WSW,248,4.5,6.7,73,0.00,,,0.00,WUHU216HW,2013-11-21 03:36:00,
2013-11-20 20:37:00,6.8,0.0,30.01,WSW,248,2.5,6.7,73,0.00,,,0.00,WUHU216HW,2013-11-21 03:37:00,
2013-11-20 20:39:00,6.8,0.0,30.01,WSW,248,3.6,6.0,73,0.00,,,0.00,WUHU216HW,2013-11-21 03:39:00,
2013-11-20 20:40:00,6.8,0.0,30.01,West,270,3.6,6.0,73,0.00,,,0.00,WUHU216HW,2013-11-21 03:40:00,
2013-11-20 20:41:00,6.8,0.0,30.01,WSW,248,3.4,6.0,73,0.00,,,0.00,WUHU216HW,2013-11-21 03:41:00,
2013-11-20 20:43:00,6.8,0.0,30.01,WNW,293,3.6,5.8,73,0.00,,,0.00,WUHU216HW,2013-11-21 03:43:00,
2013-11-20 20:45:00,6.8,0.0,30.01,West,270,2.7,6.3,73,0.00,,,0.00,WUHU216HW,2013-11-21 03:45:00,
2013-11-20 20:47:00,6.8,0.0,30.02,NNW,338,2.2,6.3,73,0.00,,,0.00,WUHU216HW,2013-11-21 03:47:00,
2013-11-20 20:48:00,6.8,0.0,30.02,NNW,338,1.1,6.3,73,0.00,,,0.00,WUHU216HW,2013-11-21 03:48:00,
2013-11-20 20:50:00,6.8,0.0,30.02,North,0,1.1,6.3,73,0.00,,,0.00,WUHU216HW,2013-11-21 03:50:00,
2013-11-20 20:51:00,6.7,-0.2,30.02,West,270,3.4,6.3,73,0.00,,,0.00,WUHU216HW,2013-11-21 03:51:00,
2013-11-20 20:52:00,6.7,-0.2,30.02,NNE,23,1.1,6.3,73,0.00,,,0.00,WUHU216HW,2013-11-21 03:52:00,
2013-11-20 20:53:00,6.5,-0.3,30.02,NNW,338,2.9,6.3,73,0.00,,,0.00,WUHU216HW,2013-11-21 03:53:00,
2013-11-20 20:55:00,6.3,-0.5,30.02,North,0,1.6,4.9,73,0.00,,,0.00,WUHU216HW,2013-11-21 03:55:00,
2013-11-20 20:56:00,6.3,-0.5,30.02,NNW,338,1.8,4.9,73,0.00,,,0.00,WUHU216HW,2013-11-21 03:56:00,
2013-11-20 20:57:00,6.1,-0.7,30.02,NNW,338,1.8,4.9,73,0.00,,,0.00,WUHU216HW,2013-11-21 03:57:00,
2013-11-20 20:58:00,6.1,-0.7,30.02,NNW,338,2.5,4.9,73,0.00,,,0.00,WUHU216HW,2013-11-21 03:58:00,
2013-11-20 21:00:00,5.9,-0.9,30.02,NNW,338,1.3,4.9,73,0.00,,,0.00,WUHU216HW,2013-11-21 04:00:00,
2013-11-20 21:01:00,5.8,-1.1,30.02,NNW,338,0.4,3.4,73,0.00,,,0.00,WUHU216HW,2013-11-21 04:01:00,
2013-11-20 21:02:00,5.8,-0.8,30.02,NNW,338,1.6,3.4,74,0.00,,,0.00,WUHU216HW,2013-11-21 04:02:00,
2013-11-20 21:04:00,5.8,-0.8,30.02,NW,315,3.6,3.6,74,0.00,,,0.00,WUHU216HW,2013-11-21 04:04:00,
2013-11-20 21:05:00,5.8,-0.8,30.02,NNW,338,2.5,3.6,74,0.00,,,0.00,WUHU216HW,2013-11-21 04:05:00,
2013-11-20 21:06:00,5.8,-0.8,30.02,NW,315,2.5,3.6,74,0.00,,,0.00,WUHU216HW,2013-11-21 04:06:00,
2013-11-20 21:07:00,5.8,-0.8,30.02,NW,315,1.8,3.6,74,0.00,,,0.00,WUHU216HW,2013-11-21 04:07:00,
2013-11-20 21:09:00,5.6,-1.0,30.02,NNW,338,1.6,3.6,74,0.00,,,0.00,WUHU216HW,2013-11-21 04:09:00,
2013-11-20 21:10:00,5.6,-1.0,30.02,NNW,338,0.2,3.6,74,0.00,,,0.00,WUHU216HW,2013-11-21 04:10:00,
2013-11-20 21:11:00,5.6,-1.0,30.02,NW,315,1.6,3.6,74,0.00,,,0.00,WUHU216HW,2013-11-21 04:11:00,
2013-11-20 21:12:00,5.6,-1.0,30.02,NW,315,1.6,3.6,74,0.00,,,0.00,WUHU216HW,2013-11-21 04:12:00,
2013-11-20 21:14:00,5.6,-1.0,30.03,North,0,1.8,2.7,74,0.00,,,0.00,WUHU216HW,2013-11-21 04:14:00,
2013-11-20 21:15:00,5.4,-1.2,30.02,NNW,338,2.5,2.7,74,0.00,,,0.00,WUHU216HW,2013-11-21 04:15:00,
2013-11-20 21:17:00,5.4,-1.2,30.03,NW,315,3.1,4.5,74,0.00,,,0.00,WUHU216HW,2013-11-21 04:17:00,
2013-11-20 21:20:00,5.4,-1.2,30.03,NNW,338,4.5,4.5,74,0.00,,,0.00,WUHU216HW,2013-11-21 04:20:00,
2013-11-20 21:21:00,5.4,-1.2,30.03,NW,315,4.7,4.7,74,0.00,,,0.00,WUHU216HW,2013-11-21 04:21:00,
2013-11-20 21:22:00,5.4,-1.2,30.03,WNW,293,2.9,4.7,74,0.00,,,0.00,WUHU216HW,2013-11-21 04:22:00,
2013-11-20 21:26:00,5.4,-1.2,30.03,NW,315,3.4,4.7,74,0.00,,,0.00,WUHU216HW,2013-11-21 04:26:00,
2013-11-20 21:27:00,5.6,-1.0,30.02,WNW,293,3.1,4.7,74,0.00,,,0.00,WUHU216HW,2013-11-21 04:27:00,
2013-11-20 21:31:00,5.6,-1.0,30.02,NW,315,2.0,4.7,74,0.00,,,0.00,WUHU216HW,2013-11-21 04:31:00,
2013-11-20 21:32:00,5.6,-1.0,30.02,West,270,1.1,3.8,74,0.00,,,0.00,WUHU216HW,2013-11-21 04:32:00,
2013-11-20 21:36:00,5.4,-1.4,30.02,West,270,1.3,3.8,73,0.00,,,0.00,WUHU216HW,2013-11-21 04:36:00,
2013-11-20 21:37:00,5.4,-1.4,30.02,WNW,293,2.5,3.8,73,0.00,,,0.00,WUHU216HW,2013-11-21 04:37:00,
2013-11-20 21:38:00,5.4,-1.4,30.02,WNW,293,2.5,2.9,73,0.00,,,0.00,WUHU216HW,2013-11-21 04:38:00,
2013-11-20 21:41:00,5.4,-1.4,30.02,West,270,2.0,2.7,73,0.00,,,0.00,WUHU216HW,2013-11-21 04:41:00,
2013-11-20 21:42:00,5.4,-1.4,30.02,WNW,293,2.5,2.7,73,0.00,,,0.00,WUHU216HW,2013-11-21 04:42:00,
2013-11-20 21:43:00,5.2,-1.6,30.02,WNW,293,2.7,2.7,73,0.00,,,0.00,WUHU216HW,2013-11-21 04:43:00,
2013-11-20 21:45:00,5.2,-1.6,30.03,NW,315,1.8,2.7,73,0.00,,,0.00,WUHU216HW,2013-11-21 04:45:00,
2013-11-20 21:46:00,5.0,-1.8,30.03,NW,315,2.5,2.7,73,0.00,,,0.00,WUHU216HW,2013-11-21 04:46:00,
2013-11-20 21:47:00,5.0,-1.8,30.03,NW,315,2.7,2.7,73,0.00,,,0.00,WUHU216HW,2013-11-21 04:47:00,
2013-11-20 21:48:00,4.9,-2.0,30.03,NW,315,2.5,2.7,73,0.00,,,0.00,WUHU216HW,2013-11-21 04:48:00,
2013-11-20 21:50:00,4.9,-2.0,30.03,NW,315,2.0,2.7,73,0.00,,,0.00,WUHU216HW,2013-11-21 04:50:00,
2013-11-20 21:51:00,4.7,-2.1,30.03,WSW,248,1.6,2.7,73,0.00,,,0.00,WUHU216HW,2013-11-21 04:51:00,
2013-11-20 21:52:00,4.7,-2.1,30.03,WSW,248,3.4,3.4,73,0.00,,,0.00,WUHU216HW,2013-11-21 04:52:00,
2013-11-20 21:53:00,4.7,-2.1,30.03,WSW,248,3.6,3.8,73,0.00,,,0.00,WUHU216HW,2013-11-21 04:53:00,
2013-11-20 21:55:00,4.5,-2.3,30.03,WSW,248,3.1,3.8,73,0.00,,,0.00,WUHU216HW,2013-11-21 04:55:00,
2013-11-20 21:57:00,4.3,-2.5,30.03,WSW,248,4.3,4.3,73,0.00,,,0.00,WUHU216HW,2013-11-21 04:57:00,
2013-11-20 21:58:00,4.3,-2.5,30.03,WSW,248,4.0,4.3,73,0.00,,,0.00,WUHU216HW,2013-11-21 04:58:00,
2013-11-20 22:00:00,4.0,-3.1,30.03,WSW,248,3.8,4.3,72,0.00,,,0.00,WUHU216HW,2013-11-21 05:00:00,
2013-11-20 22:01:00,4.0,-3.1,30.03,WSW,248,4.0,4.3,72,0.00,,,0.00,WUHU216HW,2013-11-21 05:01:00,
2013-11-20 22:02:00,4.0,-3.1,30.03,WSW,248,4.5,4.7,72,0.00,,,0.00,WUHU216HW,2013-11-21 05:02:00,
2013-11-20 22:06:00,4.0,-3.1,30.03,WSW,248,4.5,4.7,72,0.00,,,0.00,WUHU216HW,2013-11-21 05:06:00,
2013-11-20 22:07:00,3.8,-3.2,30.03,WSW,248,4.0,4.7,72,0.00,,,0.00,WUHU216HW,2013-11-21 05:07:00,
2013-11-20 22:11:00,3.8,-3.2,30.03,WSW,248,4.5,4.9,72,0.00,,,0.00,WUHU216HW,2013-11-21 05:11:00,
2013-11-20 22:12:00,3.6,-3.4,30.03,WSW,248,4.0,4.9,72,0.00,,,0.00,WUHU216HW,2013-11-21 05:12:00,
2013-11-20 22:16:00,3.4,-3.6,30.03,WSW,248,4.7,4.9,72,0.00,,,0.00,WUHU216HW,2013-11-21 05:16:00,
2013-11-20 22:17:00,3.4,-3.6,30.03,SW,225,4.7,5.4,72,0.00,,,0.00,WUHU216HW,2013-11-21 05:17:00,
2013-11-20 22:21:00,3.4,-3.3,30.03,SW,225,3.8,5.4,73,0.00,,,0.00,WUHU216HW,2013-11-21 05:21:00,
2013-11-20 22:22:00,3.4,-3.3,30.03,SW,225,3.6,5.4,73,0.00,,,0.00,WUHU216HW,2013-11-21 05:22:00,
2013-11-20 22:26:00,3.6,-3.1,30.03,WSW,248,4.9,5.4,73,0.00,,,0.00,WUHU216HW,2013-11-21 05:26:00,
2013-11-20 22:27:00,3.6,-2.9,30.03,WSW,248,4.9,5.6,74,0.00,,,0.00,WUHU216HW,2013-11-21 05:27:00,
2013-11-20 22:28:00,3.6,-2.9,30.03,WSW,248,5.4,6.3,74,0.00,,,0.00,WUHU216HW,2013-11-21 05:28:00,
2013-11-20 22:31:00,3.6,-2.9,30.03,WSW,248,5.4,6.3,74,0.00,,,0.00,WUHU216HW,2013-11-21 05:31:00,
2013-11-20 22:32:00,3.6,-2.9,30.03,WSW,248,5.4,6.3,74,0.00,,,0.00,WUHU216HW,2013-11-21 05:32:00,
2013-11-20 22:33:00,3.6,-2.9,30.03,SW,225,5.4,6.3,74,0.00,,,0.00,WUHU216HW,2013-11-21 05:33:00,
2013-11-20 22:36:00,3.6,-2.9,30.03,SW,225,4.9,6.3,74,0.00,,,0.00,WUHU216HW,2013-11-21 05:36:00,
2013-11-20 22:37:00,3.6,-2.9,30.03,SW,225,4.9,6.3,74,0.00,,,0.00,WUHU216HW,2013-11-21 05:37:00,
2013-11-20 22:38:00,3.6,-2.9,30.03,WSW,248,4.9,5.6,74,0.00,,,0.00,WUHU216HW,2013-11-21 05:38:00,
2013-11-20 22:41:00,3.8,-2.7,30.03,WSW,248,4.7,5.4,74,0.00,,,0.00,WUHU216HW,2013-11-21 05:41:00,
2013-11-20 22:42:00,3.8,-2.7,30.03,WSW,248,5.6,6.0,74,0.00,,,0.00,WUHU216HW,2013-11-21 05:42:00,
2013-11-20 22:43:00,3.8,-2.7,30.03,WSW,248,4.3,6.0,74,0.00,,,0.00,WUHU216HW,2013-11-21 05:43:00,
2013-11-20 22:44:00,3.8,-2.7,30.03,WSW,248,6.3,6.3,74,0.00,,,0.00,WUHU216HW,2013-11-21 05:44:00,
2013-11-20 22:47:00,4.0,-2.2,30.03,SW,225,4.7,6.3,75,0.00,,,0.00,WUHU216HW,2013-11-21 05:47:00,
2013-11-20 22:48:00,4.0,-2.2,30.03,SW,225,4.0,6.3,75,0.00,,,0.00,WUHU216HW,2013-11-21 05:48:00,
2013-11-20 22:49:00,4.0,-2.2,30.03,SW,225,4.5,6.3,75,0.00,,,0.00,WUHU216HW,2013-11-21 05:49:00,
2013-11-20 22:52:00,4.1,-2.2,30.03,SSW,203,4.0,6.3,75,0.00,,,0.00,WUHU216HW,2013-11-21 05:52:00,
2013-11-20 22:53:00,4.3,-2.0,30.03,SSW,203,3.8,6.3,75,0.00,,,0.00,WUHU216HW,2013-11-21 05:53:00,
2013-11-20 22:54:00,4.3,-1.6,30.03,SSW,203,3.1,5.8,76,0.00,,,0.00,WUHU216HW,2013-11-21 05:54:00,
2013-11-20 22:57:00,4.5,-1.5,30.03,SW,225,3.8,5.1,76,0.00,,,0.00,WUHU216HW,2013-11-21 05:57:00,
2013-11-20 22:59:00,4.5,-1.5,30.03,SW,225,3.4,5.1,76,0.00,,,0.00,WUHU216HW,2013-11-21 05:59:00,
2013-11-20 23:02:00,4.7,-1.6,30.03,SW,225,3.4,4.7,75,0.00,,,0.00,WUHU216HW,2013-11-21 06:02:00,
2013-11-20 23:04:00,4.7,-1.6,30.03,SW,225,2.9,4.7,75,0.00,,,0.00,WUHU216HW,2013-11-21 06:04:00,
2013-11-20 23:05:00,4.7,-1.6,30.03,SW,225,2.9,4.7,75,0.00,,,0.00,WUHU216HW,2013-11-21 06:05:00,
2013-11-20 23:07:00,4.9,-1.4,30.03,SW,225,2.0,4.0,75,0.00,,,0.00,WUHU216HW,2013-11-21 06:07:00,
2013-11-20 23:09:00,4.9,-1.4,30.03,SSW,203,1.8,3.6,75,0.00,,,0.00,WUHU216HW,2013-11-21 06:09:00,
2013-11-20 23:10:00,4.9,-1.4,30.03,SW,225,1.8,3.6,75,0.00,,,0.00,WUHU216HW,2013-11-21 06:10:00,
2013-11-20 23:12:00,4.9,-1.4,30.03,South,180,1.8,3.4,75,0.00,,,0.00,WUHU216HW,2013-11-21 06:12:00,
2013-11-20 23:13:00,4.9,-1.4,30.03,SSW,203,1.8,3.1,75,0.00,,,0.00,WUHU216HW,2013-11-21 06:13:00,
2013-11-20 23:14:00,4.9,-1.4,30.04,SW,225,3.6,3.6,75,0.00,,,0.00,WUHU216HW,2013-11-21 06:14:00,
2013-11-20 23:15:00,4.9,-1.4,30.03,SW,225,2.7,3.6,75,0.00,,,0.00,WUHU216HW,2013-11-21 06:15:00,
2013-11-20 23:16:00,4.9,-1.4,30.03,SSW,203,3.4,3.6,75,0.00,,,0.00,WUHU216HW,2013-11-21 06:16:00,
2013-11-20 23:17:00,4.9,-1.4,30.03,SSW,203,2.5,3.6,75,0.00,,,0.00,WUHU216HW,2013-11-21 06:17:00,
2013-11-20 23:18:00,4.9,-1.4,30.04,South,180,2.0,3.6,75,0.00,,,0.00,WUHU216HW,2013-11-21 06:18:00,
2013-11-20 23:20:00,4.9,-1.4,30.04,SSW,203,2.5,3.6,75,0.00,,,0.00,WUHU216HW,2013-11-21 06:20:00,
2013-11-20 23:21:00,4.9,-1.4,30.04,South,180,1.1,3.6,75,0.00,,,0.00,WUHU216HW,2013-11-21 06:21:00,
2013-11-20 23:22:00,4.9,-1.4,30.04,SSW,203,1.8,3.6,75,0.00,,,0.00,WUHU216HW,2013-11-21 06:22:00,
2013-11-20 23:23:00,5.0,-1.3,30.04,SSW,203,1.3,3.6,75,0.00,,,0.00,WUHU216HW,2013-11-21 06:23:00,
2013-11-20 23:25:00,4.9,-1.4,30.04,SSE,158,1.8,3.4,75,0.00,,,0.00,WUHU216HW,2013-11-21 06:25:00,
2013-11-20 23:26:00,5.0,-1.3,30.04,SE,135,1.8,3.4,75,0.00,,,0.00,WUHU216HW,2013-11-21 06:26:00,
2013-11-20 23:27:00,5.0,-1.3,30.04,SSE,158,1.8,3.4,75,0.00,,,0.00,WUHU216HW,2013-11-21 06:27:00,
2013-11-20 23:28:00,5.0,-1.3,30.04,SSE,158,2.0,3.4,75,0.00,,,0.00,WUHU216HW,2013-11-21 06:28:00,
2013-11-20 23:30:00,5.0,-1.3,30.04,SSE,158,1.6,2.7,75,0.00,,,0.00,WUHU216HW,2013-11-21 06:30:00,
2013-11-20 23:31:00,5.0,-1.3,30.04,SSE,158,0.7,2.7,75,0.00,,,0.00,WUHU216HW,2013-11-21 06:31:00,
2013-11-20 23:32:00,5.0,-1.3,30.04,SSE,158,0.4,2.7,75,0.00,,,0.00,WUHU216HW,2013-11-21 06:32:00,
2013-11-20 23:33:00,5.2,-1.1,30.04,SSE,158,1.3,2.7,75,0.00,,,0.00,WUHU216HW,2013-11-21 06:33:00,
2013-11-20 23:36:00,5.2,-1.1,30.04,SE,135,1.8,2.7,75,0.00,,,0.00,WUHU216HW,2013-11-21 06:36:00,
2013-11-20 23:37:00,5.2,-1.1,30.04,SE,135,1.3,2.7,75,0.00,,,0.00,WUHU216HW,2013-11-21 06:37:00,
2013-11-20 23:38:00,5.2,-1.1,30.04,SE,135,2.2,2.7,75,0.00,,,0.00,WUHU216HW,2013-11-21 06:38:00,
2013-11-20 23:39:00,5.2,-1.1,30.04,SE,135,2.0,2.7,75,0.00,,,0.00,WUHU216HW,2013-11-21 06:39:00,
2013-11-20 23:42:00,5.2,-1.1,30.04,SE,135,1.8,2.9,75,0.00,,,0.00,WUHU216HW,2013-11-21 06:42:00,
2013-11-20 23:43:00,5.2,-1.1,30.04,SSE,158,1.6,2.9,75,0.00,,,0.00,WUHU216HW,2013-11-21 06:43:00,
2013-11-20 23:44:00,5.2,-1.1,30.04,SSE,158,0.4,2.9,75,0.00,,,0.00,WUHU216HW,2013-11-21 06:44:00,
2013-11-20 23:47:00,5.2,-1.1,30.04,SSE,158,2.2,2.9,75,0.00,,,0.00,WUHU216HW,2013-11-21 06:47:00,
2013-11-20 23:48:00,5.2,-1.1,30.04,South,180,1.8,2.9,75,0.00,,,0.00,WUHU216HW,2013-11-21 06:48:00,
2013-11-20 23:49:00,5.0,-1.3,30.04,SSE,158,1.8,2.9,75,0.00,,,0.00,WUHU216HW,2013-11-21 06:49:00,
2013-11-20 23:52:00,5.0,-1.3,30.04,SSE,158,1.8,2.5,75,0.00,,,0.00,WUHU216HW,2013-11-21 06:52:00,
2013-11-20 23:53:00,5.0,-1.3,30.04,SSE,158,1.6,2.5,75,0.00,,,0.00,WUHU216HW,2013-11-21 06:53:00,
2013-11-20 23:54:00,5.0,-1.3,30.04,SSE,158,1.6,2.5,75,0.00,,,0.00,WUHU216HW,2013-11-21 06:54:00,
2013-11-20 23:57:00,4.9,-1.4,30.05,South,180,1.8,2.5,75,0.00,,,0.00,WUHU216HW,2013-11-21 06:57:00,
2013-11-20 23:58:00,4.9,-1.4,30.05,SSW,203,2.0,2.5,75,0.00,,,0.00,WUHU216HW,2013-11-21 06:58:00,
2013-11-20 23:59:00,4.9,-1.4,30.04,South,180,1.8,2.5,75,0.00,,,0.00,WUHU216HW,2013-11-21 06:59:00,